Dates à venir

Datetrier par ordre décroissant Artiste Spectacle Lieu Ville Pays
2017-11-21 00:00:00-2017-11-21 00:00:00 Ambra Senatore Scena Madre* Le Grand R, Scène Nationale de la Roche-sur-Yon La Roche-sur-Yon France
2017-11-21 00:00:00-2017-11-21 00:00:00 Ambra Senatore Scena Madre* Le Grand R, Scène Nationale de la Roche-sur-Yon La Roche-sur-Yon France
2017-11-21 00:00:00-2017-11-21 00:00:00 The Tiger Lillies Le Palais Hanté d'Edgar Allan Poe Ayuntamiento De Vitoria Vitoria Espagne
2017-11-21 00:00:00-2017-11-21 00:00:00 Hotel Pro Forma NeoArctic Cultuurcentrum Hasselt Hasselt Belgique
2017-11-22 00:00:00-2017-11-25 00:00:002017-11-22 00:00:00 2017-11-25 00:00:00 Wim Vandekeybus Mockumentary of a contemporary saviour KVS Bruxelles Belgique
2017-11-23 00:00:00-2017-11-24 00:00:002017-11-23 00:00:00 2017-11-24 00:00:00 Wim Vandekeybus In Spite of Wishing and Wanting Trafó Budapest Hongerie
2017-11-24 00:00:00-2017-11-24 00:00:00 Ambra Senatore Scena Madre* Théâtre de Saint-Quentin-en-Yvelines, Scène Netionale Saint-Quentin-en-Yvelines France
2017-11-24 00:00:00-2017-11-24 00:00:00 Hotel Pro Forma War Sum Up Théâtre de Caen, Festival Les Boréales Caen France
2017-11-26 00:00:00-2017-11-27 00:00:002017-11-26 00:00:00 2017-11-27 00:00:00 Akram Khan Company Chotto Desh Centre des Arts d'Enghien Enghien-les-Bains France
2017-11-28 00:00:00-2017-11-30 00:00:002017-11-28 00:00:00 2017-11-30 00:00:00 Ambra Senatore Scena Madre* Le Lieu Unique, Scène Nationale de Nantes Nantes France
2017-11-28 00:00:00-2017-11-28 00:00:00 Hotel Pro Forma NeoArctic Théâtre de Nîmes Nîmes France
2017-11-28 00:00:00-2017-11-28 00:00:00 Wim Vandekeybus In Spite of Wishing and Wanting Théâtre Des Salins Martigues France
2017-11-29 00:00:00-2017-11-30 00:00:002017-11-29 00:00:00 2017-11-30 00:00:00 Akram Khan Company Chotto Desh Théâtre des Feuillants, Association Bourguignonne Culturelle Dijon France
2017-11-30 00:00:00-2017-12-01 00:00:002017-11-30 00:00:00 2017-12-01 00:00:00 The Tiger Lillies Ballad of Sexual Dependency Le Maillon Strasbourg France
2017-11-30 00:00:00-2017-11-30 00:00:00 Wim Vandekeybus In Spite of Wishing and Wanting Espaces Pluriels Pau France
2017-12-06 00:00:00-2017-12-09 00:00:002017-12-06 00:00:00 2017-12-09 00:00:00 Akram Khan Company Chotto Desh Maison de la Danse de Lyon Lyon France
2017-12-08 00:00:00-2017-12-08 00:00:00 Wim Vandekeybus In Spite of Wishing and Wanting Ter Dilft Bornem Belgique
2017-12-12 00:00:00-2017-12-14 00:00:002017-12-12 00:00:00 2017-12-14 00:00:00 Akram Khan Company Chotto Desh Espace des Arts Châlon-sur-Saône France
2017-12-12 00:00:00-2017-12-15 00:00:002017-12-12 00:00:00 2017-12-15 00:00:00 Wim Vandekeybus In Spite of Wishing and Wanting KVS Bruxelles Belgique
2017-12-20 00:00:00-2017-12-23 00:00:002017-12-20 00:00:00 2017-12-23 00:00:00 Akram Khan Company Chotto Desh MC2: Grenoble Grenoble France
2017-12-21 00:00:00-2017-12-21 00:00:00 Wim Vandekeybus In Spite of Wishing and Wanting De Factorij Zaventem Belgique
2018-01-10 00:00:00-2018-01-12 00:00:002018-01-10 00:00:00 2018-01-12 00:00:00 Akram Khan Company Chotto Desh Château Rouge Annemasse France
2018-01-10 00:00:00-2018-01-12 00:00:002018-01-10 00:00:00 2018-01-12 00:00:00 Akram Khan Company Chotto Desh Château Rouge Annemasse France
2018-01-12 00:00:00-2018-01-12 00:00:00 Wim Vandekeybus In Spite of Wishing and Wanting L'ONDE Vélizy-Villacoublay France
2018-01-12 00:00:00-2018-01-12 00:00:00 Wim Vandekeybus In Spite of Wishing and Wanting L'ONDE Vélizy-Villacoublay France
2018-01-17 00:00:00-2018-01-19 00:00:002018-01-17 00:00:00 2018-01-19 00:00:00 Akram Khan Company Chotto Desh Théâtre du Vellein Villefontaine France
2018-01-17 00:00:00-2018-01-19 00:00:002018-01-17 00:00:00 2018-01-19 00:00:00 Akram Khan Company Chotto Desh Théâtre du Vellein Villefontaine France
2018-01-17 00:00:00-2018-01-18 00:00:002018-01-17 00:00:00 2018-01-18 00:00:00 Wim Vandekeybus In Spite of Wishing and Wanting MC: 2 Grenoble France
2018-01-17 00:00:00-2018-01-18 00:00:002018-01-17 00:00:00 2018-01-18 00:00:00 Wim Vandekeybus In Spite of Wishing and Wanting MC: 2 Grenoble France
2018-01-19 00:00:00-2018-01-20 00:00:002018-01-19 00:00:00 2018-01-20 00:00:00 Akram Khan Company Until the Lions Bonlieu, Scène Nationale Annecy Annecy France
2018-01-19 00:00:00-2018-01-20 00:00:002018-01-19 00:00:00 2018-01-20 00:00:00 Akram Khan Company Until the Lions Bonlieu, Scène Nationale Annecy Annecy France
2018-01-23 00:00:00-2018-01-23 00:00:00 Akram Khan Company Chotto Desh Opéra de Limoges Limoges France
2018-01-23 00:00:00-2018-01-23 00:00:00 Akram Khan Company Chotto Desh Opéra de Limoges Limoges France
2018-01-29 00:00:00-2018-01-29 00:00:002018-01-29 00:00:00 2018-01-29 00:00:00 Ambra Senatore Scena Madre* CNDC Angers France
2018-01-30 00:00:00-2018-01-30 00:00:00 Wim Vandekeybus Mockumentary of a contemporary saviour Théâtre de l'Union Limoges France
2018-01-30 00:00:00-2018-01-30 00:00:00 Wim Vandekeybus Mockumentary of a contemporary saviour Théâtre de l'Union Limoges France
2018-01-30 00:00:00-2018-01-30 00:00:00 Wim Vandekeybus Mockumentary of a contemporary saviour Théâtre de l'Union Limoges France
2018-02-01 00:00:00-2018-02-04 00:00:002018-02-01 00:00:00 2018-02-04 00:00:00 Ambra Senatore Scena Madre* Théâtre de la Ville - Théâtre des Abbesses Paris France
2018-02-02 00:00:00-2018-02-02 00:00:00 Wim Vandekeybus Mockumentary of a contemporary saviour Tandem scène nationale Douai France
2018-02-02 00:00:00-2018-02-02 00:00:00 Wim Vandekeybus Mockumentary of a contemporary saviour Tandem scène nationale Douai France
2018-02-08 00:00:00-2018-02-09 00:00:002018-02-08 00:00:00 2018-02-09 00:00:00 Ambra Senatore Scena Madre* Le Merlan, Scène Nationale de Marseille Marseille France
2018-02-14 00:00:00-2018-02-14 00:00:00 The Tiger Lillies Le Palais Hanté d'Edgar Allan Poe Théâtre Molière, scène nationale de Sète et du Bassin de Thau Sète France
2018-02-16 00:00:00-2018-02-16 00:00:00 Ambra Senatore Scena Madre* Maison de la Musique de Nanterre Paris France
2018-02-20 00:00:00-2018-02-20 00:00:00 Ambra Senatore Pièces Théâtre Forum Meyrin Meyrin Swiss
2018-02-20 00:00:00-2018-02-20 00:00:00 Ambra Senatore Pièces Théâtre Forum Meyrin Meyrin Swiss
2018-03-02 00:00:00-2018-03-03 00:00:002018-03-02 00:00:00 2018-03-03 00:00:00 Wim Vandekeybus In Spite of Wishing and Wanting Quickcenter Connecticut USA
2018-03-22 00:00:00-2018-03-24 00:00:002018-03-22 00:00:00 2018-03-24 00:00:00 Wim Vandekeybus Go Figure Out Yourself Les Brigittines Bruxelles Belgique
2018-03-22 00:00:00-2018-03-24 00:00:002018-03-22 00:00:00 2018-03-24 00:00:00 Wim Vandekeybus Go Figure Out Yourself Les Brigittines Bruxelles Belgique
2018-03-29 00:00:00-2018-03-31 00:00:002018-03-29 00:00:00 2018-03-31 00:00:00 Wim Vandekeybus Mockumentary of a contemporary saviour Vooruit Gand Belgique
2018-03-29 00:00:00-2018-03-30 00:00:002018-03-29 00:00:00 2018-03-30 00:00:00 Wim Vandekeybus Go Figure Out Yourself De Warande Turnhout Belgique
2018-04-04 00:00:00-2018-04-06 00:00:002018-04-04 00:00:00 2018-04-06 00:00:00 Akram Khan Company Chotto Desh La Coursive, scène nationale la Rochelle La Rochelle France
2018-04-04 00:00:00-2018-04-05 00:00:002018-04-04 00:00:00 2018-04-05 00:00:00 Akram Khan Company Until the Lions La Coursive, scène nationale la Rochelle La Rochelle France
2018-04-04 00:00:00-2018-04-06 00:00:002018-04-04 00:00:00 2018-04-06 00:00:00 Akram Khan Company Chotto Desh La Coursive, scène nationale la Rochelle La Rochelle France
2018-04-04 00:00:00-2018-04-05 00:00:002018-04-04 00:00:00 2018-04-05 00:00:00 The Tiger Lillies Le Palais Hanté d'Edgar Allan Poe Théâtre de l'Union Limoges France
2018-04-04 00:00:00-2018-04-05 00:00:002018-04-04 00:00:00 2018-04-05 00:00:00 Akram Khan Company Until the Lions La Coursive, scène nationale la Rochelle La Rochelle France
2018-04-10 00:00:00-2018-04-13 00:00:002018-04-10 00:00:00 2018-04-13 00:00:00 Akram Khan Company Chotto Desh Théâtre de Nîmes Nîmes France
2018-04-10 00:00:00-2018-04-13 00:00:002018-04-10 00:00:00 2018-04-13 00:00:00 Akram Khan Company Chotto Desh Théâtre de Nîmes Nîmes France
2018-04-11 00:00:00-2018-04-12 00:00:002018-04-11 00:00:00 2018-04-12 00:00:00 Wim Vandekeybus Mockumentary of a contemporary saviour Humain Trop Humain, CDN Montpellier Montpellier France
2018-04-11 00:00:00-2018-04-12 00:00:002018-04-11 00:00:00 2018-04-12 00:00:00 Wim Vandekeybus Mockumentary of a contemporary saviour Humain Trop Humain, CDN Montpellier Montpellier France
2018-04-20 00:00:00-2018-04-20 00:00:00 Akram Khan Company Chotto Desh Theater Gütersloh  Gütersloh Allemagne
2018-04-20 00:00:00-2018-04-20 00:00:00 Akram Khan Company Chotto Desh Theater Gütersloh  Gütersloh Allemagne
2018-04-22 00:00:00-2018-04-22 00:00:00 Akram Khan Company Chotto Desh Forum KulturStadtLev Leverkusen Allemagne
2018-04-22 00:00:00-2018-04-22 00:00:00 Akram Khan Company Chotto Desh Forum KulturStadtLev Leverkusen Allemagne
2018-04-28 00:00:00-2018-04-28 00:00:00 Wim Vandekeybus Go Figure Out Yourself Cultuur Centrum Brugge Bruges Belgique
2018-05-03 00:00:00-2018-05-05 00:00:002018-05-03 00:00:00 2018-05-05 00:00:00 Akram Khan Company Chotto Desh Théâtre Firmin éemier - La Piscine Châtenay-Malabry France
2018-05-03 00:00:00-2018-05-05 00:00:002018-05-03 00:00:00 2018-05-05 00:00:00 Akram Khan Company Chotto Desh Théâtre Firmin éemier - La Piscine Châtenay-Malabry France
2018-05-06 00:00:00-2018-05-07 00:00:002018-05-06 00:00:00 2018-05-07 00:00:00 Akram Khan Company Chotto Desh Théâtre du Fil de l'Eau Pantin France
2018-05-06 00:00:00-2018-05-07 00:00:002018-05-06 00:00:00 2018-05-07 00:00:00 Akram Khan Company Chotto Desh Théâtre du Fil de l'Eau Pantin France
2018-05-11 00:00:00-2018-05-12 00:00:002018-05-11 00:00:00 2018-05-12 00:00:00 Wim Vandekeybus Mockumentary of a contemporary saviour Anthéa, Antipolis Théâtre d'Antibes Antibes France
2018-05-11 00:00:00-2018-05-12 00:00:002018-05-11 00:00:00 2018-05-12 00:00:00 Wim Vandekeybus Mockumentary of a contemporary saviour Anthéa, Antipolis Théâtre d'Antibes Antibes France
2018-05-12 00:00:00-2018-05-12 00:00:00 Akram Khan Company Chotto Desh Espace Michel-Simon Noisy-le-Grand France
2018-05-12 00:00:00-2018-05-12 00:00:00 Akram Khan Company Chotto Desh Espace Michel-Simon Noisy-le-Grand France
2018-05-15 00:00:00-2018-05-17 00:00:002018-05-15 00:00:00 2018-05-17 00:00:00 Akram Khan Company Chotto Desh Ballet Preljocaj - Pavillon Noir Aix-en-Provence France
2018-05-15 00:00:00-2018-05-17 00:00:002018-05-15 00:00:00 2018-05-17 00:00:00 Akram Khan Company Chotto Desh Ballet Preljocaj - Pavillon Noir Aix-en-Provence France
2018-05-15 00:00:00-2018-05-25 00:00:002018-05-15 00:00:00 2018-05-25 00:00:00 Brett Bailey Sanctuary Le Maillon Strasbourg France
2018-05-17 00:00:00-2018-05-17 00:00:00 Wim Vandekeybus In Spite of Wishing and Wanting Le Manège Maubeuge France
2018-05-17 00:00:00-2018-05-17 00:00:00 Wim Vandekeybus In Spite of Wishing and Wanting Le Manège Maubeuge France
2018-05-20 00:00:00-2018-05-20 00:00:00 Wim Vandekeybus In Spite of Wishing and Wanting Teatro Bellini Naples Italie
2018-05-23 00:00:00-2018-05-25 00:00:002018-05-23 00:00:00 2018-05-25 00:00:00 Wim Vandekeybus Go Figure Out Yourself STUK Louvain Belgique
2018-05-24 00:00:00-2018-05-25 00:00:002018-05-24 00:00:00 2018-05-25 00:00:00 Akram Khan Company Chotto Desh Théâtre des Salins Martigues France
2018-05-24 00:00:00-2018-05-25 00:00:002018-05-24 00:00:00 2018-05-25 00:00:00 Akram Khan Company Chotto Desh Théâtre des Salins Martigues France
2018-05-24 00:00:00-2018-05-24 00:00:00 Wim Vandekeybus In Spite of Wishing and Wanting La Passerelle Saint-Brieuc France
2018-05-24 00:00:00-2018-05-24 00:00:00 Wim Vandekeybus In Spite of Wishing and Wanting La Passerelle Saint-Brieuc France
2018-05-29 00:00:00-2018-05-30 00:00:002018-05-29 00:00:00 2018-05-30 00:00:00 Akram Khan Company Chotto Desh La Rose des Vents Villeneuve d'Ascq France
2018-05-29 00:00:00-2018-05-30 00:00:002018-05-29 00:00:00 2018-05-30 00:00:00 Akram Khan Company Chotto Desh La Rose des Vents Villeneuve d'Ascq France

Past events

Dates passées

Datetrier par ordre décroissant Artiste Spectacle Lieu Ville Pays
2008-02-13 00:00:00-2008-03-16 00:00:002008-02-13 00:00:00 2008-03-16 00:00:00 Julius Caesar American Repertory Theatre, Loeb Drama Center Cambridge USA
2009-10-14 00:00:00-2009-10-17 00:00:002009-10-14 00:00:00 2009-10-17 00:00:00 Julius Caesar CDN Orleans/Loiret/Centre Orléans France
2009-10-21 00:00:00-2009-10-24 00:00:002009-10-21 00:00:00 2009-10-24 00:00:00 Julius Caesar MAC Créteil, Festival d’Automne à Paris Créteil France
2010-02-08 00:00:00-2010-02-09 00:00:002010-02-08 00:00:00 2010-02-09 00:00:00 Ambra Senatore Passo Fondazione Musica per Roma Rome Italie
2010-02-12 00:00:00-2010-02-14 00:00:002010-02-12 00:00:00 2010-02-14 00:00:00 Andy Warhol 13 Most Beautiful...Songs for Andy Warhol Screen Tests Perth International Arts Festival Perth Australie
2010-02-27 00:00:00-2010-02-27 00:00:00 Andy Warhol 13 Most Beautiful...Songs for Andy Warhol Screen Tests SOH Concerthall Sydney Australie
2010-03-02 00:00:00-2010-03-06 00:00:002010-03-02 00:00:00 2010-03-06 00:00:00 Andy Warhol 13 Most Beautiful...Songs for Andy Warhol Screen Tests NZIAF New Zealand International Arts Festival Wellington Nouvelle Zélande
2010-03-06 00:00:00-2010-03-08 00:00:002010-03-06 00:00:00 2010-03-08 00:00:00 Andy Warhol 13 Most Beautiful...Songs for Andy Warhol Screen Tests WOMADelaide Adelaide Australie
2010-04-19 00:00:00-2010-04-19 00:00:00 Andy Warhol 13 Most Beautiful...Songs for Andy Warhol Screen Tests Cité Internationale de la Musique Paris France
2010-05-19 00:00:00-2010-05-20 00:00:002010-05-19 00:00:00 2010-05-20 00:00:00 Andy Warhol 13 Most Beautiful...Songs for Andy Warhol Screen Tests Bilbao Espagne
2010-05-22 00:00:00-2010-05-22 00:00:00 Andy Warhol 13 Most Beautiful...Songs for Andy Warhol Screen Tests Art Rock Saint-Brieuc France
2010-06-08 00:00:00-2010-06-08 00:00:00 Ambra Senatore Passo Opificio Teatro Secci Terni Italie
2010-06-10 00:00:00-2010-06-10 00:00:00 Ambra Senatore Passo Teatro Astra Turin Italie
2010-07-30 00:00:00-2010-07-30 00:00:00 Andy Warhol 13 Most Beautiful...Songs for Andy Warhol Screen Tests Barbican Londres Royaume-Uni
2010-10-02 00:00:00-2010-10-02 00:00:00 Ambra Senatore Passo Biennale du Val de Marne Créteil France
2010-10-05 00:00:00-2010-10-05 00:00:00 Andy Warhol 13 Most Beautiful...Songs for Andy Warhol Screen Tests Hellerau - European Center for the Arts Dresde Allemagne
2010-10-07 00:00:00-2010-10-08 00:00:002010-10-07 00:00:00 2010-10-08 00:00:00 Andy Warhol 13 Most Beautiful...Songs for Andy Warhol Screen Tests La Filature - Scène nationale Mulhouse France
2010-10-15 00:00:00-2010-10-15 00:00:00 Ambra Senatore Passo Koreja Lecce Italie
2010-10-29 00:00:00-2010-10-29 00:00:00 Ambra Senatore Passo Il Grattacielo Livorno Italie
2010-10-31 00:00:00-2010-10-31 00:00:00 Ambra Senatore Passo Teatro San Materno Ascona Suisse
2010-11-13 00:00:00-2010-11-14 00:00:002010-11-13 00:00:00 2010-11-14 00:00:00 Ambra Senatore Passo Teatro Furio Camillo Rome Italie
2010-11-15 00:00:00-2010-11-28 00:00:002010-11-15 00:00:00 2010-11-28 00:00:00 Julius Caesar TGP – CDN de Saint-Denis Saint-Denis France
2010-11-22 00:00:00-2010-11-23 00:00:002010-11-22 00:00:00 2010-11-23 00:00:00 Ambra Senatore Passo Festival de Otono Madrid Espagne
2010-12-11 00:00:00-2010-12-11 00:00:00 Ambra Senatore Passo Théâtre d'Aix-en-Provence Aix-en-Provence France
2010-12-14 00:00:00-2010-12-14 00:00:00 Ambra Senatore Passo Théâtre d'Arles Arles France
2010-12-15 00:00:00-2010-12-15 00:00:00 Ambra Senatore Passo Bernardines Marseille France
2010-12-17 00:00:00-2010-12-17 00:00:00 Ambra Senatore Passo Spam, ALDES Lucca Italie
2011-01-18 00:00:00-2011-01-18 00:00:00 Ambra Senatore Passo Teatro Comunale Maggione Italie
2011-01-21 00:00:00-2011-01-21 00:00:00 Ambra Senatore Passo Théâtre de Bezons Bezons France
2011-01-25 00:00:00-2011-01-25 00:00:00 Ambra Senatore Passo Le Triangle Rennes France
2011-01-28 00:00:00-2011-01-30 00:00:002011-01-28 00:00:00 2011-01-30 00:00:00 L'Image Halle aux grains Blois France
2011-02-15 00:00:00-2011-02-15 00:00:00 Ambra Senatore Passo Théâtre d'Oyonnax Oyonnax France
2011-02-16 00:00:00-2011-02-16 00:00:00 Ambra Senatore Passo Arc - Scène Nationale Le Creusot France
2011-02-18 00:00:00-2011-02-18 00:00:00 Ambra Senatore Passo Polaris Corbas France
2011-02-25 00:00:00-2011-02-25 00:00:00 Ambra Senatore Passo Teatro Gioco Vita Piacenza Italie
2011-02-26 00:00:00-2011-02-26 00:00:00 Ambra Senatore Passo Teatro CSS Udine Italie
2011-03-15 00:00:00-2011-03-16 00:00:002011-03-15 00:00:00 2011-03-16 00:00:00 Ambra Senatore Passo Château Rouge Annemasse France
2011-03-18 00:00:00-2011-03-18 00:00:00 Ambra Senatore Passo Théâtre de Sallanche Sallanche France
2011-03-22 00:00:00-2011-03-26 00:00:002011-03-22 00:00:00 2011-03-26 00:00:00 Julius Caesar Théâtre Dijon-Bourgogne Dijon France
2011-03-25 00:00:00-2011-03-25 00:00:00 Ambra Senatore Passo Onyx - Scène conventionnée danse St Herblain France
2011-03-26 00:00:00-2011-03-26 00:00:00 Ambra Senatore Passo Essonne Danse Athis-Mons France
2011-03-29 00:00:00-2011-03-29 00:00:00 Ambra Senatore Passo Hexagone - Scène Nationale Meylan France
2011-03-30 00:00:00-2011-04-01 00:00:002011-03-30 00:00:00 2011-04-01 00:00:00 Julius Caesar Théâtre National de Bordeaux en Aquitaine Bordeaux France
2011-04-06 00:00:00-2011-04-08 00:00:002011-04-06 00:00:00 2011-04-08 00:00:00 Julius Caesar Théâtre de Saint-Quentin-en-Yvelines Saint-Quentin-en-Yvelines France
2011-04-08 00:00:00-2011-04-08 00:00:00 Ambra Senatore Passo Train Théâtre Porte les Valence France
2011-04-09 00:00:00-2011-04-09 00:00:00 Ambra Senatore Passo Passerelle - Scène Nationale Gap France
2011-04-12 00:00:00-2011-04-12 00:00:00 Ambra Senatore Passo Dôme Albertville France
2011-04-12 00:00:00-2011-04-16 00:00:002011-04-12 00:00:00 2011-04-16 00:00:00 L'Image Ménagerie de verre Paris France
2011-04-15 00:00:00-2011-04-15 00:00:00 Ambra Senatore Passo Rayon Vert St Valéry en Caux France
2011-04-19 00:00:00-2011-04-19 00:00:00 Andy Warhol 13 Most Beautiful...Songs for Andy Warhol Screen Tests Cité de la Musique Paris France
2011-04-20 00:00:00-2011-04-21 00:00:002011-04-20 00:00:00 2011-04-21 00:00:00 Ambra Senatore Passo Pim off Milan Italie
2011-04-22 00:00:00-2011-04-22 00:00:00 Andy Warhol 13 Most Beautiful...Songs for Andy Warhol Screen Tests Le Lieu Unique Nantes France
2011-04-30 00:00:00-2011-04-30 00:00:00 The Tiger Lillies Ballad of Sexual Dependency Blackheath Halls Londres Royaume-Uni
2011-05-26 00:00:00-2011-05-26 00:00:00 Ambra Senatore Passo La Rampe Echirolles France
2011-06-12 00:00:00-2011-06-13 00:00:002011-06-12 00:00:00 2011-06-13 00:00:00 Ambra Senatore Passo Tanec Prague République Tchèque
2011-06-15 00:00:00-2011-06-15 00:00:00 Ambra Senatore Passo Teater Cec Cec République Tchèque
2011-08-19 00:00:00-2011-08-20 00:00:002011-08-19 00:00:00 2011-08-20 00:00:00 Ambra Senatore Passo Les Brigitinnes Bruxelles Belgique
2011-08-25 00:00:00-2011-08-25 00:00:00 Ambra Senatore Passo Correios en transito Rio de Janeiro Brésil
2011-09-02 00:00:00-2011-09-03 00:00:002011-09-02 00:00:00 2011-09-03 00:00:00 Hotel Pro Forma War Sum Up Latvian National Opera Riga Lettonie
2011-09-07 00:00:00-2011-09-07 00:00:00 Ambra Senatore Passo Anticorpi Ravenna Italie
2011-09-08 00:00:00-2011-09-09 00:00:002011-09-08 00:00:00 2011-09-09 00:00:00 Hotel Pro Forma War Sum Up Oslo Contemporary Music Festival Oslo Norvège
2011-09-12 00:00:00-2011-09-12 00:00:00 Ambra Senatore Passo Short Theater Rome Italie
2011-10-05 00:00:00-2011-10-07 00:00:002011-10-05 00:00:00 2011-10-07 00:00:00 Jan Karski (Mon nom est fiction) CDN Orléans/Loiret/Centre Orléans France
2011-10-13 00:00:00-2011-10-14 00:00:002011-10-13 00:00:00 2011-10-14 00:00:00 Jan Karski (Mon nom est fiction) Comédie de Clermont-Ferrand Clermont-Ferrand France
2011-10-15 00:00:00-2011-10-16 00:00:002011-10-15 00:00:00 2011-10-16 00:00:00 Ambra Senatore A Posto TorinoDansa Turin Italie
2011-10-16 00:00:00-2011-10-17 00:00:002011-10-16 00:00:00 2011-10-17 00:00:00 Hotel Pro Forma War Sum Up Latvian National Opera Riga Lettonie
2011-10-25 00:00:00-2011-10-25 00:00:00 Hotel Pro Forma War Sum Up Odense Theatre Odense Belgique
2011-10-27 00:00:00-2011-10-28 00:00:002011-10-27 00:00:00 2011-10-28 00:00:00 Hotel Pro Forma War Sum Up Musikhuset Aarhus Aarhus Danemark
2011-10-28 00:00:00-2011-10-28 00:00:00 Ambra Senatore Passo Stadstheater Amhem Pays-Bas
2011-11-04 00:00:00-2011-11-04 00:00:00 Ambra Senatore A Posto Théâtre ici et là Briey France
2011-11-11 00:00:00-2011-11-12 00:00:002011-11-11 00:00:00 2011-11-12 00:00:00 Hotel Pro Forma War Sum Up The Royal Danish Theatre Copenhague Danemark
2011-11-18 00:00:00-2011-11-20 00:00:002011-11-18 00:00:00 2011-11-20 00:00:00 Jan Karski (Mon nom est fiction) Théâtre de la Cité internationale, New settings Paris France
2011-11-19 00:00:00-2011-11-19 00:00:00 Ambra Senatore Passo Le Cuvier CDC d'Aquitaine Artigues France
2011-11-25 00:00:00-2011-11-25 00:00:00 Ambra Senatore Passo Théâtre de Roanne Roanne France
2011-12-06 00:00:00-2011-12-06 00:00:00 Ambra Senatore Passo Arc - Scène Nationale Le Creusot France
2011-12-08 00:00:00-2011-12-08 00:00:00 Ambra Senatore Passo Le Forum Meyrin Suisse
2011-12-12 00:00:00-2011-12-13 00:00:002011-12-12 00:00:00 2011-12-13 00:00:00 Jan Karski (Mon nom est fiction) Comédie de Reims Reims France
2012-01-17 00:00:00-2012-01-18 00:00:002012-01-17 00:00:00 2012-01-18 00:00:00 Jan Karski (Mon nom est fiction) MCB° Bourges Bourges France
2012-01-31 00:00:00-2012-02-03 00:00:002012-01-31 00:00:00 2012-02-03 00:00:00 Jan Karski (Mon nom est fiction) CDDB – Théâtre de Lorient Lorient France
2012-02-08 00:00:00-2012-02-19 00:00:002012-02-08 00:00:00 2012-02-19 00:00:00 Jan Karski (Mon nom est fiction) Les Gémeaux Sceaux France
2012-02-24 00:00:00-2012-02-24 00:00:00 Ambra Senatore Passo Armunia Castiglioncello Italie
2012-02-25 00:00:00-2012-03-02 00:00:002012-02-25 00:00:00 2012-03-02 00:00:00 The Tiger Lillies The Tiger Lillies perform Hamlet REPUBLIQUE Copenhague Danemark
2012-03-03 00:00:00-2012-03-03 00:00:00 The Tiger Lillies Ballad of Sexual Dependency L'Arsenal Metz France
2012-03-16 00:00:00-2012-03-18 00:00:002012-03-16 00:00:00 2012-03-18 00:00:00 The Tiger Lillies Rime of the Ancient Mariner Maison de la Musique de Nanterre Nanterre France
2012-03-20 00:00:00-2012-03-24 00:00:002012-03-20 00:00:00 2012-03-24 00:00:00 Ambra Senatore Passo Théâtre de la Ville Paris France
2012-03-26 00:00:00-2012-03-28 00:00:002012-03-26 00:00:00 2012-03-28 00:00:00 Ambra Senatore Passo Le Montfort Paris France
2012-03-27 00:00:00-2012-03-30 00:00:002012-03-27 00:00:00 2012-03-30 00:00:00 The Tiger Lillies Rime of the Ancient Mariner Scène Nationale de Sète et du Bassin de Thau Sète France
2012-03-30 00:00:00-2012-03-30 00:00:00 Ambra Senatore Passo Théâtre de Cusset Cusset France
2012-04-02 00:00:00-2012-04-08 00:00:002012-04-02 00:00:00 2012-04-08 00:00:00 Julius Caesar Festival Ibéro-américain de Théâtre de Bogotá Bogotá Colombie
2012-04-19 00:00:00-2012-04-19 00:00:00 Ambra Senatore Passo Teatro Comunale Urbino Italie
2012-04-20 00:00:00-2012-04-20 00:00:00 Ambra Senatore Passo Teatro Chiravalle Chiravalle Italie
2012-04-21 00:00:00-2012-05-12 00:00:002012-04-21 00:00:00 2012-05-12 00:00:00 The Tiger Lillies The Tiger Lillies perform Hamlet REPUBLIQUE Copenhague Danemark
2012-04-29 00:00:00-2012-04-29 00:00:00 Hotel Pro Forma War Sum Up Royal Danish Opera Copenhague Danemark
2012-05-05 00:00:00-2012-05-06 00:00:002012-05-05 00:00:00 2012-05-06 00:00:00 Ambra Senatore A Posto Palladium / RomaEuropa Rome Italie
2012-05-13 00:00:00-2012-05-13 00:00:00 Ambra Senatore Passo La Filature - Scène Nationale Mulhouse France
2012-05-19 00:00:00-2012-05-20 00:00:002012-05-19 00:00:00 2012-05-20 00:00:00 The Tiger Lillies The Tiger Lillies perform Hamlet Göteborgs Dans & Teater Festival Göteborg Suède
2012-05-22 00:00:00-2012-05-22 00:00:00 Ambra Senatore Passo Scène Jura - Scène Nationale Dôle France
2012-05-24 00:00:00-2012-05-24 00:00:00 Ambra Senatore Passo Festival Interplay Turin Italie
2012-05-25 00:00:00-2012-05-25 00:00:00 Hotel Pro Forma War Sum Up Brighton Dome, Brighton Festival Brighton Royaume-Uni
2012-05-25 00:00:00-2012-05-26 00:00:002012-05-25 00:00:00 2012-05-26 00:00:00 Brokentalkers The Blue Boy Dublin Dance Festival Dublin Irlande
2012-05-31 00:00:00-2012-05-31 00:00:00 Ambra Senatore Passo Pôle Sud Strasbourg France
2012-06-02 00:00:00-2012-06-02 00:00:00 Ambra Senatore A Posto Château Rouge Annemasse France
2012-06-05 00:00:00-2012-06-05 00:00:00 Hotel Pro Forma War Sum Up Riga's Opera Festival Riga Latvia
2012-06-18 00:00:00-2012-06-19 00:00:002012-06-18 00:00:00 2012-06-19 00:00:00 William Kentridge Refuse the Hour Holland Festival, Frascati Theater Amsterdam Pays-Bas
2012-06-20 00:00:00-2012-06-23 00:00:002012-06-20 00:00:00 2012-06-23 00:00:00 Brokentalkers The Blue Boy Staatstheater Wiesbaden Wiesbaden Allemagne
2012-07-07 00:00:00-2012-07-13 00:00:002012-07-07 00:00:00 2012-07-13 00:00:00 William Kentridge Refuse the Hour Festival d’Avignon, Théâtre Municipal Avignon France
2012-07-20 00:00:00-2012-07-28 00:00:002012-07-20 00:00:00 2012-07-28 00:00:00 La Mouette Cour d'honneur du Palais des papes, Festival d'Avignon Avignon France
2012-08-13 00:00:00-2012-08-14 00:00:002012-08-13 00:00:00 2012-08-14 00:00:00 Ambra Senatore Passo Festival Tanz Im August Berlin Allemagne
2012-08-18 00:00:00-2012-08-22 00:00:002012-08-18 00:00:00 2012-08-22 00:00:00 Brokentalkers The Blue Boy Stage - Helsinki Theatre Festival Helsinki Finlande
2012-08-23 00:00:00-2012-08-26 00:00:002012-08-23 00:00:00 2012-08-26 00:00:00 Brokentalkers The Blue Boy Lokal Festival Reykjavik Islande
2012-09-18 00:00:00-2012-09-21 00:00:002012-09-18 00:00:00 2012-09-21 00:00:00 The Tiger Lillies The Tiger Lillies perform Hamlet Southbank Centre Londres Royaume-Uni
2012-09-25 00:00:00-2012-09-27 00:00:002012-09-25 00:00:00 2012-09-27 00:00:00 La Mouette CDN Orléans/Loiret/Centre Orléans France
2012-09-26 00:00:00-2012-09-27 00:00:002012-09-26 00:00:00 2012-09-27 00:00:00 Ambra Senatore A Posto L'Espal Le Mans France
2012-09-29 00:00:00-2012-09-29 00:00:00 Ambra Senatore A Posto Cavallerizza Raggio Emilia Italie
2012-09-29 00:00:00-2012-09-29 00:00:00 Ambra Senatore Passo Cavallerizza Raggio Emilia Italie
2012-10-02 00:00:00-2012-10-05 00:00:002012-10-02 00:00:00 2012-10-05 00:00:00 La Mouette Théâtre national de Bordeaux en Aquitaine Bordeaux France
2012-10-10 00:00:00-2012-10-12 00:00:002012-10-10 00:00:00 2012-10-12 00:00:00 La Mouette La Comédie de Clermont-Ferrand Clermont-Ferrand France
2012-10-10 00:00:00-2012-10-10 00:00:00 Hotel Pro Forma War Sum Up Budapest Fall Festival, National Theatre Budapest Hongrie
2012-10-12 00:00:00-2012-10-13 00:00:002012-10-12 00:00:00 2012-10-13 00:00:00 The Tiger Lillies Rime of the Ancient Mariner 104 LE CENTQUATRE Paris France
2012-10-18 00:00:00-2012-10-19 00:00:002012-10-18 00:00:00 2012-10-19 00:00:00 La Mouette Le Parvis Tarbes France
2012-11-03 00:00:00-2012-11-03 00:00:00 Ambra Senatore A Posto Danzarte Brescia Italie
2012-11-04 00:00:00-2012-11-04 00:00:00 Ambra Senatore A Posto Koreja Lecce Italie
2012-11-09 00:00:00-2012-11-09 00:00:00 Brokentalkers The Blue Boy National Theatre Târgu Mures Roumanie
2012-11-14 00:00:00-2012-11-15 00:00:002012-11-14 00:00:00 2012-11-15 00:00:00 Jan Karski (Mon nom est fiction) Hangar 23, Festival Automne en Normandie Rouen France
2012-11-14 00:00:00-2012-11-14 00:00:00 Brokentalkers The Blue Boy Festival Temps d'Image - Cluj-Napoca Cluj-Napoca Roumanie
2012-11-15 00:00:00-2012-11-18 00:00:002012-11-15 00:00:00 2012-11-18 00:00:00 William Kentridge Refuse the Hour Roma Europa Festival, Argentina Theater Rome Italie
2012-11-17 00:00:00-2012-11-18 00:00:002012-11-17 00:00:00 2012-11-18 00:00:00 Brokentalkers The Blue Boy Theater Tri-Bühne Stuttgart Allemagne
2012-11-20 00:00:00-2012-11-20 00:00:00 Ambra Senatore Passo Le Théâtre de St Nazaire St Nazaire France
2012-11-22 00:00:00-2012-11-23 00:00:002012-11-22 00:00:00 2012-11-23 00:00:00 Ambra Senatore Passo Scène Nationale de Besançon Besançon France
2012-11-22 00:00:00-2012-11-25 00:00:002012-11-22 00:00:00 2012-11-25 00:00:00 William Kentridge Refuse the Hour Onassis Cultural Center Athènes Grèce
2012-11-23 00:00:00-2012-11-24 00:00:002012-11-23 00:00:00 2012-11-24 00:00:00 Hotel Pro Forma War Sum Up Materia Prima Festival Cracovie Pologne
2012-11-30 00:00:00-2012-12-01 00:00:002012-11-30 00:00:00 2012-12-01 00:00:00 Jan Karski (Mon nom est fiction) Teatr Polski de Varsovie Varsovie Pologne
2012-12-07 00:00:00-2012-12-07 00:00:00 Ambra Senatore A Posto Espace Maraux Chambéry France
2012-12-11 00:00:00-2012-12-11 00:00:00 Ambra Senatore Passo Teatro delle Passioni Modène Italie
2012-12-12 00:00:00-2012-12-12 00:00:00 Ambra Senatore Passo Teatro delle Passioni Florence Italie
2013-01-08 00:00:00-2013-01-09 00:00:002013-01-08 00:00:00 2013-01-09 00:00:00 Jan Karski (Mon nom est fiction) Équinoxe Châteauroux France
2013-01-30 00:00:00-2013-01-31 00:00:002013-01-30 00:00:00 2013-01-31 00:00:00 Jan Karski (Mon nom est fiction) Le Quartz Brest France
2013-02-01 00:00:00-2013-02-02 00:00:002013-02-01 00:00:00 2013-02-02 00:00:00 Brokentalkers The Blue Boy Theatre National de Bruxelles Bruxelles Belgique
2013-02-04 00:00:00-2013-02-05 00:00:002013-02-04 00:00:00 2013-02-05 00:00:00 Brokentalkers The Blue Boy Festival de Liege Liège Belgique
2013-02-06 00:00:00-2013-02-07 00:00:002013-02-06 00:00:00 2013-02-07 00:00:00 Jan Karski (Mon nom est fiction) L’Estive Foix France
2013-02-07 00:00:00-2013-02-08 00:00:002013-02-07 00:00:00 2013-02-08 00:00:00 Brokentalkers The Blue Boy Le Manège Mons Mons Belgique
2013-02-16 00:00:00-2013-02-16 00:00:00 Andy Warhol 13 Most Beautiful...Songs for Andy Warhol Screen Tests The MAC Belfast Royaume-Uni
2013-02-18 00:00:00-2013-02-18 00:00:00 Ambra Senatore Nos amours bêtes Théâtre Am Stram Gram Genève Suisse
2013-03-07 00:00:00-2013-03-08 00:00:002013-03-07 00:00:00 2013-03-08 00:00:00 La Mouette le phénix Valenciennes France
2013-03-14 00:00:00-2013-03-14 00:00:00 La Mouette Le Préau Vire France
2013-03-15 00:00:00-2013-03-15 00:00:00 Ambra Senatore Passo Théâtre ici et là Briey France
2013-03-19 00:00:00-2013-03-19 00:00:00 Ambra Senatore Passo Espaces Pluriels - Scène conventionnée danse Pau France
2013-03-21 00:00:00-2013-03-22 00:00:002013-03-21 00:00:00 2013-03-22 00:00:00 La Mouette Comédie de Reims Reims France
2013-03-22 00:00:00-2013-03-22 00:00:00 Ambra Senatore Passo Scène Nationale d'Orléans Orléans France
2013-03-23 00:00:00-2013-03-23 00:00:00 Ambra Senatore Nos amours bêtes TNG Lyon France
2013-03-26 00:00:00-2013-04-03 00:00:002013-03-26 00:00:00 2013-04-03 00:00:00 Ambra Senatore A Posto Théâtre de la Ville Paris France
2013-04-03 00:00:00-2013-04-03 00:00:00 The Tiger Lillies Rime of the Ancient Mariner Théatre d'Angouleme Angouleme France
2013-04-04 00:00:00-2013-04-06 00:00:002013-04-04 00:00:00 2013-04-06 00:00:00 La Mouette Théâtre de Saint-Quentin-en-Yvelines Saint-Quentin-en-Yvelines France
2013-04-06 00:00:00-2013-04-06 00:00:00 Ambra Senatore Nos amours bêtes Théâtre de la Ville Paris France
2013-04-06 00:00:00-2013-04-07 00:00:002013-04-06 00:00:00 2013-04-07 00:00:00 Hotel Pro Forma War Sum Up Le Volcan Le Havre France
2013-04-10 00:00:00-2013-04-10 00:00:00 Hotel Pro Forma War Sum Up Théâtre de Nîmes Nîmes France
2013-04-11 00:00:00-2013-04-13 00:00:002013-04-11 00:00:00 2013-04-13 00:00:00 La Mouette Théâtre National de Nice Nice France
2013-04-12 00:00:00-2013-04-12 00:00:00 The Tiger Lillies Rime of the Ancient Mariner Theatre du Beauvaisis Beauvais France
2013-04-16 00:00:00-2013-04-17 00:00:002013-04-16 00:00:00 2013-04-17 00:00:00 The Tiger Lillies Rime of the Ancient Mariner CDDB Theatre de Lorient Lorient France
2013-04-17 00:00:00-2013-04-17 00:00:00 Ambra Senatore Passo L'Esplanade du Lac Divonne-Les-Bains France
2013-04-17 00:00:00-2013-04-18 00:00:002013-04-17 00:00:00 2013-04-18 00:00:00 La Mouette CDDB – Théâtre de Lorient Lorient France
2013-04-19 00:00:00-2013-04-19 00:00:00 Ambra Senatore Passo Théâtre de Venissieux Venissieux France
2013-04-19 00:00:00-2013-04-19 00:00:00 The Tiger Lillies Rime of the Ancient Mariner le lieu unique Nantes France
2013-04-23 00:00:00-2013-04-28 00:00:002013-04-23 00:00:00 2013-04-28 00:00:00 Brokentalkers The Blue Boy Augenblick mal! Berlin Allemagne
2013-04-24 00:00:00-2013-04-27 00:00:002013-04-24 00:00:00 2013-04-27 00:00:00 La Mouette Maison des Arts de Créteil Créteil France
2013-05-11 00:00:00-2013-05-11 00:00:00 Ambra Senatore A Posto Armunia Castiglioncello Italie
2013-05-11 00:00:00-2013-05-12 00:00:002013-05-11 00:00:00 2013-05-12 00:00:00 The Tiger Lillies Rime of the Ancient Mariner LG Arts Center Seoul Corée du Sud
2013-05-16 00:00:00-2013-05-18 00:00:002013-05-16 00:00:00 2013-05-18 00:00:00 Brokentalkers Have I No Mouth The English Theatre Berlin Berlin Allemagne
2013-05-23 00:00:00-2013-05-23 00:00:00 The Tiger Lillies Rime of the Ancient Mariner Brighton Dome Brighton Royaume-Uni
2013-05-27 00:00:00-2013-05-28 00:00:002013-05-27 00:00:00 2013-05-28 00:00:00 Brokentalkers The Blue Boy Omsk State Drama Fifth Theatre Omsk Russie
2013-05-31 00:00:00-2013-05-31 00:00:00 The Tiger Lillies Rime of the Ancient Mariner Château Rouge Annemasse France
2013-06-22 00:00:00-2013-06-22 00:00:00 L'Image Chengdu Chine
2013-06-24 00:00:00-2013-06-26 00:00:002013-06-24 00:00:00 2013-06-26 00:00:00 Brokentalkers Have I No Mouth TheateRformen Hannovre Allemagne
2013-06-25 00:00:00-2013-06-26 00:00:002013-06-25 00:00:00 2013-06-26 00:00:00 L'Image Kunming Chine
2013-07-18 00:00:00-2013-07-18 00:00:00 The Tiger Lillies Rime of the Ancient Mariner Celebrate Brooklyn New York USA
2013-07-20 00:00:00-2013-07-21 00:00:002013-07-20 00:00:00 2013-07-21 00:00:00 Ambra Senatore Passo Danca in Transito Rio de Janeiro Brésil
2013-07-23 00:00:00-2013-07-23 00:00:00 Ambra Senatore A Posto Sesc Sao Paolo Brésil
2013-07-23 00:00:00-2013-07-27 00:00:002013-07-23 00:00:00 2013-07-27 00:00:00 William Kentridge Refuse the Hour Paris Quartier d’été, Théâtre Ephémère – Comédie Française Paris France
2013-08-01 00:00:00-2013-08-31 00:00:002013-08-01 00:00:00 2013-08-31 00:00:00 Brokentalkers Have I No Mouth Edinburgh Festival Fringe Edimbourg Royaume-Uni
2013-08-01 00:00:00-2013-08-04 00:00:002013-08-01 00:00:00 2013-08-04 00:00:00 William Kentridge Refuse the Hour Impulztanz Festival, Volkstheater Vienne Autriche
2013-08-20 00:00:00-2013-08-21 00:00:002013-08-20 00:00:00 2013-08-21 00:00:00 Ambra Senatore A Posto Les Brigitinnes Bruxelles Belgique
2013-09-05 00:00:00-2013-09-08 00:00:002013-09-05 00:00:00 2013-09-08 00:00:00 The Tiger Lillies Rime of the Ancient Mariner Southbank Center Londres Royaume-Uni
2013-09-11 00:00:00-2013-09-11 00:00:00 Hotel Pro Forma War Sum Up Transart, Teatro Comunale Bolzano Italie
2013-09-12 00:00:00-2013-09-12 00:00:00 Ambra Senatore Passo Pôle Sud Strasbourg France
2013-09-21 00:00:00-2013-09-23 00:00:002013-09-21 00:00:00 2013-09-23 00:00:00 L'Image Aichi Triennale Nagoya Japon
2013-09-24 00:00:00-2013-09-25 00:00:002013-09-24 00:00:00 2013-09-25 00:00:00 Brokentalkers The Blue Boy Centquatre 104 Paris France
2013-10-05 00:00:00-2013-10-05 00:00:00 Brokentalkers Frequency 783 Dublin Theatre Festival Dublin Irlande
2013-10-05 00:00:00-2013-10-05 00:00:00 The Tiger Lillies Rime of the Ancient Mariner sirenos festival Vilnius Lithuanie
2013-10-13 00:00:00-2013-10-13 00:00:00 Ambra Senatore A Posto Spam, ALDES Lucca Italie
2013-10-16 00:00:00-2013-10-17 00:00:002013-10-16 00:00:00 2013-10-17 00:00:00 Ambra Senatore A Posto Scène Nationale de Besançon Besançon France
2013-10-21 00:00:00-2013-10-21 00:00:00 Ambra Senatore A Posto Sidance Festival Séoul Corée du Sud
2013-10-23 00:00:00-2013-10-23 00:00:00 Ambra Senatore A Posto Sidance Festival Bussan Corée du Sud
2013-10-25 00:00:00-2013-10-25 00:00:00 Ambra Senatore Passo Sidance Festival Ichenon Corée du Sud
2013-11-01 00:00:00-2013-11-02 00:00:002013-11-01 00:00:00 2013-11-02 00:00:00 Hotel Pro Forma War Sum Up Next Wave Festival, Brooklyn Academy of Music New York USA
2013-11-08 00:00:00-2013-11-08 00:00:00 Brokentalkers The Blue Boy Euro Scene-Leipzig Festival of Contemporary European theatre Leipzig Allemagne
2013-11-22 00:00:00-2013-11-22 00:00:00 The Tiger Lillies Rime of the Ancient Mariner Centre des Arts Pluriels Ettelbruck Luxembourg
2013-11-24 00:00:00-2013-11-24 00:00:00 The Tiger Lillies Ballad of Sexual Dependency La Comédie de Clermont Clermont-Ferrand France
2013-11-26 00:00:00-2013-11-26 00:00:00 Ambra Senatore Nos amours bêtes Théâtre du Vellein Villefontaine France
2013-11-28 00:00:00-2013-11-28 00:00:00 Ambra Senatore A Posto Les Eclats Chorégraphiques Poitiers France
2013-11-29 00:00:00-2013-11-30 00:00:002013-11-29 00:00:00 2013-11-30 00:00:00 Brokentalkers The Blue Boy Maison de la Culture de Tournai Tournai France
2013-12-02 00:00:00-2013-12-02 00:00:00 Ambra Senatore Nos amours bêtes Scène Nationale MA Bethoncourt France
2013-12-10 00:00:00-2013-12-11 00:00:002013-12-10 00:00:00 2013-12-11 00:00:00 Ambra Senatore Passo Scène Nationale MCB Bourges France
2014-01-09 00:00:00-2014-01-19 00:00:002014-01-09 00:00:00 2014-01-19 00:00:00 La Mouette T2G Théâtre de Gennevilliers Gennevilliers France
2014-01-09 00:00:00-2014-01-09 00:00:00 The Tiger Lillies Rime of the Ancient Mariner Teatro Circo Murcia Murcia Espagne
2014-01-11 00:00:00-2014-01-11 00:00:00 The Tiger Lillies Rime of the Ancient Mariner Teatro Central de Sevilla Séville Espagne
2014-01-12 00:00:00-2014-01-12 00:00:00 Ambra Senatore Passo Teatro Arezzo Arezzo Italie
2014-01-14 00:00:00-2014-01-14 00:00:00 Ambra Senatore Nos amours bêtes La Comédie de Valence Valence France
2014-01-14 00:00:00-2014-01-26 00:00:002014-01-14 00:00:00 2014-01-26 00:00:00 Brokentalkers Have I No Mouth Baryshnikov Arts Center, Irish Arts Center, PS 122, COIL Festival 2014 New York USA
2014-01-17 00:00:00-2014-01-17 00:00:00 Ambra Senatore A Posto La Comédie de Valence Valence France
2014-01-21 00:00:00-2014-01-22 00:00:002014-01-21 00:00:00 2014-01-22 00:00:00 Ambra Senatore A Posto La Comédie de Valence Valence France
2014-01-23 00:00:00-2014-01-23 00:00:00 Ambra Senatore Nos amours bêtes Théâtre de Vannes - Scène conventionnée danse Vannes France
2014-01-23 00:00:00-2014-01-24 00:00:002014-01-23 00:00:00 2014-01-24 00:00:00 La Mouette Equinoxe Chateauroux France
2014-01-28 00:00:00-2014-01-29 00:00:002014-01-28 00:00:00 2014-01-29 00:00:00 Ambra Senatore Passo Arena del sole Bologne France
2014-01-28 00:00:00-2014-02-01 00:00:002014-01-28 00:00:00 2014-02-01 00:00:00 The Tiger Lillies Lulu - A Murder Ballad West Yorkshire Playhouse Leeds Royaume-Uni
2014-01-30 00:00:00-2014-01-30 00:00:00 Ambra Senatore Nos amours bêtes Le Toboggan Décines France
2014-01-30 00:00:00-2014-02-01 00:00:002014-01-30 00:00:00 2014-02-01 00:00:00 Brokentalkers Have I No Mouth PuSh International Performing Arts Vancouver Canada
2014-01-30 00:00:00-2014-01-30 00:00:00 La Mouette Le Préau Vire France
2014-02-01 00:00:00-2014-02-02 00:00:002014-02-01 00:00:00 2014-02-02 00:00:00 William Kentridge Refuse the Hour DeutschesSchauSpielHaus Hambourg Allemagne
2014-02-07 00:00:00-2014-02-08 00:00:002014-02-07 00:00:00 2014-02-08 00:00:00 The Tiger Lillies Lulu - A Murder Ballad Warwick Arts Centre Coventry Royaume-Uni
2014-02-13 00:00:00-2014-02-15 00:00:002014-02-13 00:00:00 2014-02-15 00:00:00 The Tiger Lillies Lulu - A Murder Ballad Contact Manchester Royaume-Uni
2014-02-18 00:00:00-2014-02-18 00:00:00 Ambra Senatore Passo La Rennaissance Mondeville France
2014-02-20 00:00:00-2014-02-20 00:00:00 Ambra Senatore Passo DSN - Scène Nationale Dieppe France
2014-02-20 00:00:00-2014-02-22 00:00:002014-02-20 00:00:00 2014-02-22 00:00:00 YAMA Dundee Rep Dundee Royaume-Uni
2014-02-22 00:00:00-2014-02-23 00:00:002014-02-22 00:00:00 2014-02-23 00:00:00 Ambra Senatore A Posto Scenario Publico Catagna Italie
2014-02-27 00:00:00-2014-03-01 00:00:002014-02-27 00:00:00 2014-03-01 00:00:00 The Tiger Lillies Lulu - A Murder Ballad Northern Stage Newcastle Royaume-Uni
2014-03-01 00:00:00-2014-03-01 00:00:00 YAMA Traverse Theatre Edimbourg Royaume-Uni
2014-03-08 00:00:00-2014-03-08 00:00:00 Ambra Senatore Passo Théâtre Louis Aragon - scène conventionnée danse Tremblay-en-France France
2014-03-08 00:00:00-2014-03-09 00:00:002014-03-08 00:00:00 2014-03-09 00:00:00 The Tiger Lillies Rime of the Ancient Mariner New Zealand Festival Wellington Nouvelle Zélande
2014-03-12 00:00:00-2014-03-14 00:00:002014-03-12 00:00:00 2014-03-14 00:00:00 The Tiger Lillies Rime of the Ancient Mariner Adelaide Festival Adelaide Australie
2014-03-15 00:00:00-2014-03-16 00:00:002014-03-15 00:00:00 2014-03-16 00:00:00 Handspring Puppet Co. Ubu and the Truth Commission MIT#SP Mostra International de Teatro de Sao Paulo Sao Paulo Brésil
2014-03-18 00:00:00-2014-03-18 00:00:00 Ambra Senatore A Posto Le Cratère - Scène Nationale Alès France
2014-03-20 00:00:00-2014-03-20 00:00:00 Hotel Pro Forma War Sum Up Lucent Danstheater Den Haag Pays-Bas
2014-03-21 00:00:00-2014-03-21 00:00:00 Hotel Pro Forma War Sum Up Odeon de Spiegel Zwolle Pays-Bas
2014-03-21 00:00:00-2014-12-21 00:00:002014-03-21 00:00:00 2014-12-21 00:00:00 Hotel Pro Forma COSMOS+ Lithuanian National Drama Theatre Vilnius Lithuanie
2014-03-22 00:00:00-2014-03-22 00:00:00 Hotel Pro Forma War Sum Up Theater aan de Parade Den Bosch Pays-Bas
2014-03-23 00:00:00-2014-03-23 00:00:00 Ambra Senatore Nos amours bêtes Sévelin 36 Lausanne Suisse
2014-04-04 00:00:00-2014-04-04 00:00:00 The Tiger Lillies Rime of the Ancient Mariner Théâtre Firmin Gemier-La Piscine Chatenay-Malabry France
2014-04-05 00:00:00-2014-04-05 00:00:00 The Tiger Lillies Rime of the Ancient Mariner DSN - Dieppe Scène Nationale Dieppe France
2014-04-11 00:00:00-2014-04-11 00:00:00 The Tiger Lillies Rime of the Ancient Mariner Théâtre de Corbeil-Essonnes Corbeil-Essonnes France
2014-04-14 00:00:00-2014-04-14 00:00:00 Ambra Senatore Aringa Rossa Le Carré - Les Colonnes St Médard en Jalles France
2014-04-16 00:00:00-2014-04-19 00:00:002014-04-16 00:00:00 2014-04-19 00:00:00 Handspring Puppet Co. Ubu and the Truth Commission XIV Festival Iberoamericano de Teatro de Bogota Bogota Colombie
2014-04-24 00:00:00-2014-04-27 00:00:002014-04-24 00:00:00 2014-04-27 00:00:00 Handspring Puppet Co. Ubu and the Truth Commission Festival de Teatro de Caracas 2014 (TBC) Caracas Vénézuela
2014-04-29 00:00:00-2014-04-29 00:00:00 Ambra Senatore Nos amours bêtes Hexagone - Scène Nationale Meylan France
2014-05-02 00:00:00-2014-05-03 00:00:002014-05-02 00:00:00 2014-05-03 00:00:00 YAMA The Tramway Glasgow Royaume-Uni
2014-05-03 00:00:00-2014-05-24 00:00:002014-05-03 00:00:00 2014-05-24 00:00:00 Hotel Pro Forma Laughter in the Dark Repulique, Studio Stage Copenhague Danemark
2014-05-08 00:00:00-2014-05-08 00:00:00 Ambra Senatore Passo Teatro Viriato Viseu Portugal
2014-05-10 00:00:00-2014-05-10 00:00:00 Ambra Senatore Passo Centro Cultural de Belem Lisbonne Portugal
2014-05-19 00:00:00-2014-05-19 00:00:00 The Tiger Lillies Lulu - A Murder Ballad Mayfest at Bristol Old Vic Bristol Royaume-Uni
2014-05-21 00:00:00-2014-05-22 00:00:002014-05-21 00:00:00 2014-05-22 00:00:00 Ambra Senatore Passo CNDC Angers France
2014-05-24 00:00:00-2014-05-25 00:00:002014-05-24 00:00:00 2014-05-25 00:00:00 Brokentalkers The Blue Boy Festival Kontakt Torun Pologne
2014-05-27 00:00:00-2014-05-28 00:00:002014-05-27 00:00:00 2014-05-28 00:00:00 Ambra Senatore Aringa Rossa La Comédie de Valence Valence France
2014-05-31 00:00:00-2014-06-01 00:00:002014-05-31 00:00:00 2014-06-01 00:00:00 The Tiger Lillies Rime of the Ancient Mariner Bergen International Festival Bergen Norvège
2014-06-28 00:00:00-2014-06-29 00:00:002014-06-28 00:00:00 2014-06-29 00:00:00 The Tiger Lillies A Dream Turns Sour LIFT 2014 Londres Royaume-Uni
2014-08-15 00:00:00-2014-08-17 00:00:002014-08-15 00:00:00 2014-08-17 00:00:00 Handspring Puppet Co. Ubu and the Truth Commission Taipei Arts Festival Taipei Taiwan
2014-08-28 00:00:00-2014-08-30 00:00:002014-08-28 00:00:00 2014-08-30 00:00:00 Handspring Puppet Co. Ubu and the Truth Commission Edinburgh International Festival Edimbourg Royaume-Uni
2014-08-29 00:00:00-2014-08-31 00:00:002014-08-29 00:00:00 2014-08-31 00:00:00 The Tiger Lillies Rime of the Ancient Mariner Southbank centre Londres Royaume-Uni
2014-09-11 00:00:00-2014-09-11 00:00:00 William Kentridge Paper Music FLAME, Florence Music Art Ensemble, Bargello Museum Florence Italie
2014-09-14 00:00:00-2014-09-14 00:00:00 Ambra Senatore Passo Festival le Temps d'Aimer Biarritz France
2014-09-15 00:00:00-2014-09-15 00:00:00 The Tiger Lillies Rime of the Ancient Mariner Düsseldorf Festival Dusseldorf Allemagne
2014-09-19 00:00:00-2014-09-19 00:00:00 Ambra Senatore A Posto Théâtre de Venissieux Venissieux France
2014-09-27 00:00:00-2014-09-28 00:00:002014-09-27 00:00:00 2014-09-28 00:00:00 Ambra Senatore Aringa Rossa Le Toboggan, Biennale de la danse de Lyon Décines France
2014-09-27 00:00:00-2014-09-28 00:00:002014-09-27 00:00:00 2014-09-28 00:00:00 The Tiger Lillies Edith Piaf - Songs from the Gutter Maison de la musique de Nanterre Nanterre France
2014-09-28 00:00:00-2014-09-29 00:00:002014-09-28 00:00:00 2014-09-29 00:00:00 Hotel Pro Forma Laughter in the Dark SIRENOS festival Vilnius Lithuanie
2014-09-30 00:00:00-2014-09-30 00:00:00 Ambra Senatore Aringa Rossa Château Rouge Annemasse France
2014-09-30 00:00:00-2014-09-30 00:00:00 The Tiger Lillies Rime of the Ancient Mariner Théâtre de Nîmes Nîmes France
2014-10-01 00:00:00-2014-10-05 00:00:002014-10-01 00:00:00 2014-10-05 00:00:00 Brokentalkers Frequency 783 Dublin Theatre Festival Dublin Ireland
2014-10-02 00:00:00-2014-10-03 00:00:002014-10-02 00:00:00 2014-10-03 00:00:00 The Tiger Lillies Edith Piaf - Songs from the Gutter Théâtre de Sète et du Bassin de Thau Sète France
2014-10-04 00:00:00-2014-10-05 00:00:002014-10-04 00:00:00 2014-10-05 00:00:00 Hotel Pro Forma Laughter in the Dark TEART festival Minsk Biélorussie
2014-10-06 00:00:00-2014-10-06 00:00:00 The Tiger Lillies Lulu - A Murder Ballad Festival Musica Strasbourg France
2014-10-10 00:00:00-2014-10-13 00:00:002014-10-10 00:00:00 2014-10-13 00:00:00 Brokentalkers Have I No Mouth Melbourne International Festival Melbourne Australie
2014-10-17 00:00:00-2014-10-17 00:00:00 Andy Warhol Exposed : Songs for Unseen Warhol Films The Carnegie Music Hall Pittsburgh USA
2014-10-18 00:00:00-2014-10-19 00:00:002014-10-18 00:00:00 2014-10-19 00:00:00 The Tiger Lillies The Tiger Lillies perform Hamlet Cervantiono Festival, Teatro pricipal Guanajato Mexique
2014-10-25 00:00:00-2014-10-25 00:00:00 Andy Warhol Exposed : Songs for Unseen Warhol Films Center for the Art of Performance at UCLA Los Angeles USA
2014-10-27 00:00:00-2014-10-27 00:00:00 William Kentridge Paper Music UBUNTU Festival, Carnegie Hall New York USA
2014-11-05 00:00:00-2014-11-06 00:00:002014-11-05 00:00:00 2014-11-06 00:00:00 William Kentridge Paper Music DURUB AL TAWAYA Abu Dhabi UAE
2014-11-06 00:00:00-2014-11-08 00:00:002014-11-06 00:00:00 2014-11-08 00:00:00 Andy Warhol Exposed : Songs for Unseen Warhol Films BAM New York USA
2014-11-07 00:00:00-2014-11-07 00:00:00 Ambra Senatore Passo Conservatoire de Roissy Roissy France
2014-11-12 00:00:00-2014-11-18 00:00:002014-11-12 00:00:00 2014-11-18 00:00:00 The Tiger Lillies The Tiger Lillies perform Hamlet Place des Arts Montreal Canada
2014-11-13 00:00:00-2014-11-22 00:00:002014-11-13 00:00:00 2014-11-22 00:00:00 Jan Karski (Mon nom est fiction) Théâtre Vidy Lausanne Vidy-Lausanne Suisse
2014-11-20 00:00:00-2014-11-22 00:00:002014-11-20 00:00:00 2014-11-22 00:00:00 Handspring Puppet Co. Ubu and the Truth Commission RomaEuropa / Teatro della Pergola Florence Italie
2014-11-28 00:00:00-2014-11-28 00:00:00 The Tiger Lillies A Dream Turns Sour Maison de la musique de Nanterre Nanterre France
2014-11-29 00:00:00-2014-11-29 00:00:00 William Kentridge Paper Music Interferences - International Theatre Festival Cluj Roumanie
2014-12-06 00:00:00-2014-12-06 00:00:00 Ambra Senatore Aringa Rossa Théâtre Louis Aragon - scène conventionnée danse Tremblay-en-France France
2014-12-09 00:00:00-2014-12-11 00:00:002014-12-09 00:00:00 2014-12-11 00:00:00 Brokentalkers The Blue Boy Le Trident Cherbourg-Octeville France
2014-12-11 00:00:00-2014-12-11 00:00:00 Ambra Senatore Aringa Rossa TorinoDansa Turin France
2014-12-11 00:00:00-2014-12-13 00:00:002014-12-11 00:00:00 2014-12-13 00:00:00 Handspring Puppet Co. Ubu and the Truth Commission BOZAR Bruxelles Belgique
2014-12-17 00:00:00-2014-12-21 00:00:002014-12-17 00:00:00 2014-12-21 00:00:00 Handspring Puppet Co. Ubu and the Truth Commission Onassis Cultural Center Athènes Grèce
2015-01-09 00:00:00-2015-01-11 00:00:002015-01-09 00:00:00 2015-01-11 00:00:00 The Tiger Lillies Rime of the Ancient Mariner Badminton Theatre Athènes Grèce
2015-01-13 00:00:00-2014-01-14 00:00:002015-01-13 00:00:00 2014-01-14 00:00:00 Ambra Senatore Nos amours bêtes Arc - Scène Nationale Le Creusot France
2015-01-14 00:00:00-2015-01-16 00:00:002015-01-14 00:00:00 2015-01-16 00:00:00 Splendid's CDN Orléans/Loiret/Centre Orléans France
2015-01-15 00:00:00-2015-01-18 00:00:002015-01-15 00:00:00 2015-01-18 00:00:00 Brokentalkers Have I No Mouth Seymour Centre, Sydney Festival Sydney Australie
2015-01-16 00:00:00-2015-01-16 00:00:00 Ambra Senatore Nos amours bêtes Le Théâtre de St Nazaire St Nazaire France
2015-01-16 00:00:00-2015-01-17 00:00:002015-01-16 00:00:00 2015-01-17 00:00:00 The Tiger Lillies The Tiger Lillies perform Hamlet Stadsschouwburg Amsterdam Amsterdam Pays-Bas
2015-01-21 00:00:00-2015-01-21 00:00:00 The Tiger Lillies The Tiger Lillies perform Hamlet Schouwburg Arnhem Arnhem Pays-Bas
2015-01-21 00:00:00-2015-01-24 00:00:002015-01-21 00:00:00 2015-01-24 00:00:00 Splendid's Théâtre Olympia Tours France
2015-01-25 00:00:00-2015-01-25 00:00:00 Ambra Senatore Nos amours bêtes Théâtre de Morges Morges Suisse
2015-01-27 00:00:00-2015-01-27 00:00:00 Ambra Senatore Nos amours bêtes Le Prisme St-Quentin-en-Yvelines France
2015-01-27 00:00:00-2015-01-27 00:00:00 The Tiger Lillies The Tiger Lillies perform Hamlet Stadsschouwburg Groningen Groningen Pays-Bas
2015-01-29 00:00:00-2015-01-29 00:00:00 Ambra Senatore Aringa Rossa DSN - Scène Nationale Dieppe France
2015-01-29 00:00:00-2015-01-30 00:00:002015-01-29 00:00:00 2015-01-30 00:00:00 Ambra Senatore Nos amours bêtes Théâtre Louis Aragon - scène conventionnée danse Tremblay-en-France France
2015-01-31 00:00:00-2015-01-31 00:00:00 Ambra Senatore Aringa Rossa Arc - Scène Nationale Le Creusot France
2015-02-03 00:00:00-2015-02-03 00:00:00 Ambra Senatore Aringa Rossa Scène Jura - Scène Nationale Lons-Le-Saunier France
2015-02-03 00:00:00-2015-02-03 00:00:00 Brokentalkers The Blue Boy Théâtre Gérard Philippe Champigny sur Marne France
2015-02-04 00:00:00-2015-02-14 00:00:002015-02-04 00:00:00 2015-02-14 00:00:00 Hotel Pro Forma COSMOS+ Den Grå Hal Copenhague Danemark
2015-02-05 00:00:00-2015-02-05 00:00:00 Ambra Senatore A Posto CCN Le Phare Le Havre France
2015-02-05 00:00:00-2015-02-05 00:00:00 Brokentalkers The Blue Boy Théâtre Firmin Gemier - La Piscine Chatenay-Malabry France
2015-02-06 00:00:00-2015-02-06 00:00:00 Ambra Senatore A Posto CCN de Tours Tours France
2015-02-07 00:00:00-2015-02-07 00:00:00 Brokentalkers The Blue Boy Théâtre Jean Arp Clamart France
2015-02-11 00:00:00-2015-02-14 00:00:002015-02-11 00:00:00 2015-02-14 00:00:00 Ambra Senatore Aringa Rossa Théâtre de la Ville Paris France
2015-02-12 00:00:00-2015-02-12 00:00:00 YAMA Dundee Rep Theatre Dundee Royaume-Uni
2015-02-13 00:00:00-2015-02-14 00:00:002015-02-13 00:00:00 2015-02-14 00:00:00 Brokentalkers The Blue Boy Teatro Central Séville Espagne
2015-02-17 00:00:00-2015-02-18 00:00:002015-02-17 00:00:00 2015-02-18 00:00:00 Ambra Senatore Aringa Rossa Scène Nationale de Besançon Besançon France
2015-02-18 00:00:00-2015-02-18 00:00:00 Brokentalkers The Blue Boy Teatro Alhambra Granada Espagne
2015-02-18 00:00:00-2015-02-18 00:00:00 YAMA Traverse Theatre Edinburgh Edimbourg Royaume-Uni
2015-02-20 00:00:00-2015-02-21 00:00:002015-02-20 00:00:00 2015-02-21 00:00:00 Brokentalkers The Blue Boy Centro Cultural de Belem Lisbonne Portugal
2015-02-23 00:00:00-2015-02-25 00:00:002015-02-23 00:00:00 2015-02-25 00:00:00 YAMA Auditorium Parco Della Musica, Equilibrio Festival Rome Italie
2015-02-24 00:00:00-2015-02-24 00:00:00 Ambra Senatore Passo Théâtre de Loiron Loiron France
2015-02-24 00:00:00-2015-02-28 00:00:002015-02-24 00:00:00 2015-02-28 00:00:00 Handspring Puppet Co. Ubu and the Truth Commission Heath Ledger Theatre, Perth Festival Perth Australie
2015-02-26 00:00:00-2015-02-28 00:00:002015-02-26 00:00:00 2015-02-28 00:00:00 William Kentridge Refuse the Hour Design Indaba Le Cap Afrique du Sud
2015-02-27 00:00:00-2015-02-28 00:00:002015-02-27 00:00:00 2015-02-28 00:00:00 Ambra Senatore Aringa Rossa MC2 : Grenoble Grenoble France
2015-03-01 00:00:00-2015-04-26 00:00:002015-03-01 00:00:00 2015-04-26 00:00:00 Hotel Pro Forma COSMOS+ Lithuanian National Drama Theatre Vilnius Lithuanie
2015-03-10 00:00:00-2015-03-10 00:00:00 Ambra Senatore A Posto Théâtre de Chaumont Chaumont France
2015-03-12 00:00:00-2015-03-12 00:00:00 Ambra Senatore A Posto Le Forum Meyrin Suisse
2015-03-13 00:00:00-2015-03-14 00:00:002015-03-13 00:00:00 2015-03-14 00:00:00 Ambra Senatore A Posto Sévelin 36 Lausanne Suisse
2015-03-13 00:00:00-2015-03-14 00:00:002015-03-13 00:00:00 2015-03-14 00:00:00 Brokentalkers The Blue Boy Teatri di Vita Bologne Italie
2015-03-17 00:00:00-2015-03-17 00:00:00 Ambra Senatore Passo CC Beaulieu Poitiers France
2015-03-20 00:00:00-2015-03-22 00:00:002015-03-20 00:00:00 2015-03-22 00:00:00 Hotel Pro Forma War Sum Up National Performing Arts Center Taipei Taiwan
2015-03-22 00:00:00-2015-03-22 00:00:00 Ambra Senatore A Posto Essonne Danse Etampes France
2015-03-28 00:00:00-2015-03-28 00:00:00 The Tiger Lillies Edith Piaf - Songs from the Gutter Maison de la musique et de la danse de Bagneux Bagneux France
2015-04-07 00:00:00-2015-04-07 00:00:00 Ambra Senatore A Posto Le Cuvier CDC d'Aquitaine Artigues France
2015-04-08 00:00:00-2015-04-25 00:00:002015-04-08 00:00:00 2015-04-25 00:00:00 The Tiger Lillies The Tiger Lillies perform Hamlet REPUBLIQUE Copenhague Danemark
2015-04-08 00:00:00-2015-04-11 00:00:002015-04-08 00:00:00 2015-04-11 00:00:00 Splendid's Théâtre du Nord Lille France
2015-04-15 00:00:00-2015-04-17 00:00:002015-04-15 00:00:00 2015-04-17 00:00:00 Splendid's MCB° Bourges Bourges France
2015-04-15 00:00:00-2015-04-19 00:00:002015-04-15 00:00:00 2015-04-19 00:00:00 Handspring Puppet Co. Ubu and the Truth Commission Berkeley Street Theatre, Canadian Stage Toronto Canada
2015-04-18 00:00:00-2015-04-18 00:00:00 The Tiger Lillies Rime of the Ancient Mariner Stadsschouwburg Bruges Belgique
2015-04-20 00:00:00-2015-04-20 00:00:00 The Tiger Lillies Rime of the Ancient Mariner cultuurcentrum Hasselt Hasselt Belgique
2015-04-21 00:00:00-2015-04-21 00:00:00 The Tiger Lillies Rime of the Ancient Mariner Theaters Tilburg Tilburg Pays-Bas
2015-04-22 00:00:00-2015-04-23 00:00:002015-04-22 00:00:00 2015-04-23 00:00:00 Splendid's La Comédie de Reims Reims France
2015-04-28 00:00:00-2015-04-29 00:00:002015-04-28 00:00:00 2015-04-29 00:00:00 Splendid's Le Parvis Tarbes France
2015-05-01 00:00:00-2015-05-03 00:00:002015-05-01 00:00:00 2015-05-03 00:00:00 Handspring Puppet Co. Ubu and the Truth Commission Zellerbach Playhouse, Cal Performances Berkeley Etats-Unis
2015-05-31 00:00:00-2015-05-31 00:00:00 Hotel Pro Forma COSMOS+ Lithuanian National Drama Theatre Vilnius Lithuanie
2015-06-25 00:00:00-2015-06-28 00:00:002015-06-25 00:00:00 2015-06-28 00:00:00 The Tiger Lillies The Tiger Lillies perform Hamlet Schauspielhaus Zürich Zürich Suisse
2015-06-27 00:00:00-2015-06-27 00:00:00 Hotel Pro Forma War Sum Up Macao Cultural Centre Macau Chine
2015-07-07 00:00:00-2015-07-07 00:00:00 Andy Warhol 13 Most Beautiful...Songs for Andy Warhol Screen Tests Centre Pompidou-Metz Metz France
2015-08-02 00:00:00-2015-08-03 00:00:002015-08-02 00:00:00 2015-08-03 00:00:00 The Tiger Lillies The Tiger Lillies perform Hamlet The Gdansk Shakespeare Theatre Gdansk Pologne
2015-08-21 00:00:00-2015-08-22 00:00:002015-08-21 00:00:00 2015-08-22 00:00:00 Splendid's Théâtre national de Corée (NTCK) Séoul Corée du Sud
2015-08-22 00:00:00-2015-08-29 00:00:002015-08-22 00:00:00 2015-08-29 00:00:00 YAMA Zoo Southside, Edinburgh Fringe Festival Edimbourg Royaume-Uni
2015-10-10 00:00:00-2015-10-10 00:00:00 Ambra Senatore Aringa Rossa NID Platform Brescia Italie
2015-10-11 00:00:00-2015-10-11 00:00:00 Handspring Puppet Co. Ubu and the Truth Commission Teatre Municipal de Girona, Temporada Alta Gérone Espagne
2015-10-15 00:00:00-2015-10-17 00:00:002015-10-15 00:00:00 2015-10-17 00:00:00 The Tiger Lillies The Tiger Lillies perform Hamlet Zorlu Center Drama Stage, Istanbul Foundation for Culture and Arts Istanbul Turquie
2015-10-15 00:00:00-2015-11-07 00:00:002015-10-15 00:00:00 2015-11-07 00:00:00 Handspring Puppet Co. Ubu and the Truth Commission Print Room at the Coronet Londres Royaume-Uni
2015-10-22 00:00:00-2015-10-25 00:00:002015-10-22 00:00:00 2015-10-25 00:00:00 William Kentridge Refuse the Hour BAM Next Wave Festival 2015, Harvey Theatre New York USA
2015-10-23 00:00:00-2015-10-23 00:00:00 Akram Khan Company Chotto Desh DanceEast Ipswich Royaume-Uni
2015-10-25 00:00:00-2015-10-25 00:00:00 Akram Khan Company Chotto Desh Arts Depot Londres Royaume-Uni
2015-10-27 00:00:00-2015-10-27 00:00:00 Akram Khan Company Chotto Desh Corn Exchange Brighton Royaume-Uni
2015-10-29 00:00:00-2015-12-05 00:00:002015-10-29 00:00:00 2015-12-05 00:00:00 Splendid's Centro Dramatico Nacional Madrid Espagne
2015-10-30 00:00:00-2015-10-31 00:00:002015-10-30 00:00:00 2015-10-31 00:00:00 Akram Khan Company Chotto Desh Sadler's Wells Londres Royaume-Uni
2015-11-06 00:00:00-2015-11-07 00:00:002015-11-06 00:00:00 2015-11-07 00:00:00 William Kentridge Refuse the Hour Yale University Theatre Yale USA
2015-11-07 00:00:00-2015-11-08 00:00:002015-11-07 00:00:00 2015-11-08 00:00:00 Akram Khan Company Chotto Desh Pavilion Dance South West Bournemouth Royaume-Uni
2015-11-10 00:00:00-2015-11-10 00:00:00 Ambra Senatore A Posto Théâtre de Bourg-en-Bresse Bourg-en-Bresse France
2015-11-12 00:00:00-2015-11-12 00:00:00 Akram Khan Company Chotto Desh The Core at Corby Cube Corby Royaume-Uni
2015-11-14 00:00:00-2015-11-14 00:00:00 Akram Khan Company Chotto Desh Lakeside Arts Nottingham Royaume-Uni
2015-11-17 00:00:00-2015-11-17 00:00:00 Ambra Senatore A Posto Théâtre de Rungis Rungis France
2015-11-17 00:00:00-2015-11-17 00:00:00 Brokentalkers Frequency 783 Barishnikov Arts Center, Irish Arts Center New York USA
2015-11-19 00:00:00-2015-11-19 00:00:00 Akram Khan Company Chotto Desh Circomedia Bristol Royaume-Uni
2015-11-19 00:00:00-2015-11-20 00:00:002015-11-19 00:00:00 2015-11-20 00:00:00 Handspring Puppet Co. Ubu and the Truth Commission Trafó House of Contemporary Arts Budapest Hongrie
2015-11-20 00:00:00-2015-11-20 00:00:00 Black Marrow HELLERAU, Festspielsaal Dresden Allemagne
2015-11-22 00:00:00-2015-11-22 00:00:00 Akram Khan Company Chotto Desh The Junction Cambridge Royaume-Uni
2015-11-23 00:00:00-2015-11-28 00:00:002015-11-23 00:00:00 2015-11-28 00:00:00 The Tiger Lillies Lulu - A Murder Ballad Royal Opera House - Linbury Studio Londres Royaume-Uni
2015-11-24 00:00:00-2015-12-12 00:00:002015-11-24 00:00:00 2015-12-12 00:00:00 Handspring Puppet Co. Ubu and the Truth Commission Grande Halle de la Villette Paris France
2015-11-25 00:00:00-2015-11-25 00:00:00 Akram Khan Company Chotto Desh Gulbenkian Canterbury Royaume-Uni
2015-11-25 00:00:00-2015-11-25 00:00:00 Black Marrow DAMPFZENTRALE, Turbinensaal Bern Suisse
2015-11-26 00:00:00-2015-11-26 00:00:00 Ambra Senatore A Posto Sâlmon Festival - Mercat de los Flors Barcelone Espagne
2015-11-26 00:00:00-2015-11-27 00:00:002015-11-26 00:00:00 2015-11-27 00:00:00 YAMA Dance Xchange Birmingham Royaume-Uni
2015-11-27 00:00:00-2015-11-28 00:00:002015-11-27 00:00:00 2015-11-28 00:00:00 Black Marrow KAMPNAGEL Hambourg Allemagne
2015-11-28 00:00:00-2015-11-28 00:00:00 Akram Khan Company Chotto Desh Northern School of Contemporary Dance Leeds Royaume-Uni
2015-11-28 00:00:00-2015-11-29 00:00:002015-11-28 00:00:00 2015-11-29 00:00:00 Hotel Pro Forma Laughter in the Dark RomaEuropa Festival 2015 Rome Italie
2015-11-30 00:00:00-2015-11-30 00:00:00 The Tiger Lillies Lulu - A Murder Ballad Brighton Dome Brighton Royaume-Uni
2015-12-03 00:00:00-2015-12-05 00:00:002015-12-03 00:00:00 2015-12-05 00:00:00 Splendid's La Criée Marseille France
2015-12-04 00:00:00-2015-12-05 00:00:002015-12-04 00:00:00 2015-12-05 00:00:00 Akram Khan Company Chotto Desh The Curve Theatre Leicester Royaume-Uni
2015-12-12 00:00:00-2015-12-12 00:00:00 Ambra Senatore Aringa Rossa Le Merlan - Scène Nationale Marseille France
2015-12-16 00:00:00-2015-12-20 00:00:002015-12-16 00:00:00 2015-12-20 00:00:00 Akram Khan Company Chotto Desh DanceEast Ipswich Royaume-Uni
2015-12-16 00:00:00-2015-12-17 00:00:002015-12-16 00:00:00 2015-12-17 00:00:00 The Tiger Lillies Rime of the Ancient Mariner MC2 : Grenoble Grenoble France
2016-01-09 00:00:00-2016-01-24 00:00:002016-01-09 00:00:00 2016-01-24 00:00:00 Akram Khan Company Until the Lions Roundhouse Londres Royaume-Uni
2016-01-12 00:00:00-2016-01-13 00:00:002016-01-12 00:00:00 2016-01-13 00:00:00 Ambra Senatore Aringa Rossa Maison de la Culture de Bourges Bourges France
2016-01-21 00:00:00-2016-01-21 00:00:00 Ambra Senatore Passo Circa Auch France
2016-01-26 00:00:00-2016-02-05 00:00:002016-01-26 00:00:00 2016-02-05 00:00:00 Wim Vandekeybus In Spite of Wishing and Wanting KVS Bruxelles Belgique
2016-01-28 00:00:00-2016-01-29 00:00:002016-01-28 00:00:00 2016-01-29 00:00:00 Akram Khan Company Until the Lions La Comete - scene nationale Chalons-en-Champagne France
2016-02-02 00:00:00-2016-02-02 00:00:00 The Tiger Lillies Edith Piaf - Songs from the Gutter Théâtre de St-Quentin-en-Yvelines St-Quentin-en-Yvelines France
2016-02-03 00:00:00-2016-02-03 00:00:00 The Tiger Lillies The Tiger Lillies Concert Théâtre des Bergeries Noisy-Le-Sec France
2016-02-12 00:00:00-2016-02-14 00:00:002016-02-12 00:00:00 2016-02-14 00:00:00 William Kentridge Refuse the Hour Perth Concert Hall, Perth Festival Perth Australie
2016-02-17 00:00:00-2016-02-21 00:00:002016-02-17 00:00:00 2016-02-21 00:00:00 Brokentalkers This Beach Munchner Kammerspiele Munich Allemagne
2016-03-08 00:00:00-2016-03-08 00:00:00 Ambra Senatore A Posto Le Rive Gauche St Etienne de Rouvray France
2016-03-09 00:00:00-2016-03-09 00:00:00 Wim Vandekeybus In Spite of Wishing and Wanting Teatro Alhambra Granada Espagne
2016-03-11 00:00:00-2016-03-12 00:00:002016-03-11 00:00:00 2016-03-12 00:00:00 Wim Vandekeybus In Spite of Wishing and Wanting Teatro Central de Sevilla Séville Espagne
2016-03-12 00:00:00-2016-03-12 00:00:00 Hotel Pro Forma COSMOS+ Uppsala Stadsteater Uppsala Suède
2016-03-17 00:00:00-2016-03-26 00:00:002016-03-17 00:00:00 2016-03-26 00:00:00 Splendid's La Colline Paris France
2016-03-17 00:00:00-2016-03-21 00:00:002016-03-17 00:00:00 2016-03-21 00:00:00 The Tiger Lillies The Tiger Lillies perform Hamlet Festival Iberoamericano de Teatro de Bogotá Bogota Colombie
2016-03-18 00:00:00-2016-03-18 00:00:00 Ambra Senatore Passo ACB Scène Nationale Bar-Le-Duc France
2016-03-22 00:00:00-2016-03-22 00:00:00 Ambra Senatore Aringa Rossa Le Carreau - Scène Nationale Forbach France
2016-03-24 00:00:00-2016-03-24 00:00:00 Ambra Senatore Aringa Rossa Centre André Malraux - Scène Nationale Vandoeuvre lès Nancy France
2016-03-30 00:00:00-2016-03-31 00:00:002016-03-30 00:00:00 2016-03-31 00:00:00 Ambra Senatore Aringa Rossa Le Trident - Scène Nationale Cherbourg France
2016-03-31 00:00:00-2016-03-31 00:00:00 Wim Vandekeybus In Spite of Wishing and Wanting Stadsschouwburg Amsterdam Amsterdam Pays-Bas
2016-04-19 00:00:00-2016-04-21 00:00:002016-04-19 00:00:00 2016-04-21 00:00:00 Splendid's Théâtre Vidy-Lausanne Vidy-Lausanne Suisse
2016-04-20 00:00:00-2016-04-23 00:00:002016-04-20 00:00:00 2016-04-23 00:00:00 Akram Khan Company Until the Lions Movimentos Wolfsburg Allemagne
2016-04-27 00:00:00-2016-04-30 00:00:002016-04-27 00:00:00 2016-04-30 00:00:00 Akram Khan Company Until the Lions MC2:Grenoble Grenoble France
2016-04-27 00:00:00-2016-04-28 00:00:002016-04-27 00:00:00 2016-04-28 00:00:00 Splendid's CDDB – Théâtre de Lorient Lorient France
2016-04-30 00:00:00-2016-04-30 00:00:00 Ambra Senatore Aringa Rossa Teatro Municipal do Porto Porto Portugal
2016-05-03 00:00:00-2016-05-04 00:00:002016-05-03 00:00:00 2016-05-04 00:00:00 Akram Khan Company Chotto Desh The Lowry Manchester Royaume-Uni
2016-05-16 00:00:00-2016-05-16 00:00:00 Andy Warhol Exposed : Songs for Unseen Warhol Films Barbican Londres Royaume-Uni
2016-05-18 00:00:00-2016-05-18 00:00:00 Andy Warhol Exposed : Songs for Unseen Warhol Films Le Lieu Unique Nantes France
2016-05-21 00:00:00-2016-05-21 00:00:00 Andy Warhol Exposed : Songs for Unseen Warhol Films Philharmonie de Paris Paris France
2016-05-26 00:00:00-2016-05-27 00:00:002016-05-26 00:00:00 2016-05-27 00:00:00 Akram Khan Company Until the Lions Brighton Festival Brighton Royaume-Uni
2016-05-28 00:00:00-2016-05-29 00:00:002016-05-28 00:00:00 2016-05-29 00:00:00 Handspring Puppet Co. Il Ritorno d'Ulisse Asia Culture Center, Asian Arts Theatre Gwangju Corée du Sud
2016-06-23 00:00:00-2016-06-25 00:00:002016-06-23 00:00:00 2016-06-25 00:00:00 Akram Khan Company Until the Lions Holland Festival Amsterdam Pays-Bas
2016-09-09 00:00:00-2016-09-17 00:00:002016-09-09 00:00:00 2016-09-17 00:00:00 Brokentalkers This Beach Tiger Dublin Fringe Dublin Irlande
2016-09-15 00:00:00-2016-09-15 00:00:00 Hotel Pro Forma NeoArctic The Royal Danish Theatre Copenhague Danemark
2016-09-27 00:00:00-2016-09-28 00:00:002016-09-27 00:00:00 2016-09-28 00:00:00 Ambra Senatore Aringa Rossa Grand T Nantes France
2016-10-04 00:00:00-2016-10-05 00:00:002016-10-04 00:00:00 2016-10-05 00:00:00 Brett Bailey MacBeth Théâtre de Cornouaille Quimper France
2016-10-04 00:00:00-2016-10-08 00:00:002016-10-04 00:00:00 2016-10-08 00:00:00 Brokentalkers The Circus Animals' Desertion Dublin Theatre Festival, Samuel Beckett Theatre Dublin Irlande
2016-10-09 00:00:00-2016-10-14 00:00:002016-10-09 00:00:00 2016-10-14 00:00:00 William Kentridge Paper Music The Print Room Londres Royaume-Uni
2016-10-09 00:00:00-2016-10-14 00:00:002016-10-09 00:00:00 2016-10-14 00:00:00 William Kentridge Paper Music Fondation Louis Vuitton Paris France
2016-11-14 00:00:00-2016-11-16 00:00:002016-11-14 00:00:00 2016-11-16 00:00:00 Handspring Puppet Co. Il Ritorno d'Ulisse Lincoln Center for the Preforming Arts New York USA
2016-11-18 00:00:00-2016-11-18 00:00:00 The Tiger Lillies Edith Piaf - Songs from the Gutter Centre des Arts Pluriels Ettelbruck Luxembourg Luxembourg
2016-11-19 00:00:00-2016-11-19 00:00:00 Ambra Senatore Aringa Rossa Maison de la Musique Nanterre France
2016-11-19 00:00:00-2016-11-19 00:00:00 Ambra Senatore Aringa Rossa Maison de la musique Nanterre France
2016-11-24 00:00:00-2016-11-24 00:00:00 Brokentalkers This Beach Théâtre hongrois de Cluj Cluj-Napoca Romanie
2016-11-29 00:00:00-2016-11-30 00:00:002016-11-29 00:00:00 2016-11-30 00:00:00 Ambra Senatore Pièces Les 2 Scènes Besançon France
2016-12-06 00:00:00-2016-12-08 00:00:002016-12-06 00:00:00 2016-12-08 00:00:00 Ambra Senatore Pièces Le Lieu Unique Nantes France
2016-12-09 00:00:00-2016-12-09 00:00:00 YAMA Concertgebouw Brugge Belgium
2016-12-13 00:00:00-2016-12-16 00:00:002016-12-13 00:00:00 2016-12-16 00:00:00 Ambra Senatore Nos amours bêtes Le Rive Gauche Saint-Etienne-du-Rouvray France
2016-12-13 00:00:00-2016-12-16 00:00:002016-12-13 00:00:00 2016-12-16 00:00:00 Ambra Senatore Nos amours bêtes Le Rive Gauche Saint-Etienne-du-Rouvray France
2017-01-05 00:00:00-2017-01-07 00:00:002017-01-05 00:00:00 2017-01-07 00:00:00 The Tiger Lillies Ballad of Sexual Dependency Cité de la musique -Philharmonie de Paris Paris France
2017-01-19 00:00:00-2017-01-22 00:00:002017-01-19 00:00:00 2017-01-22 00:00:00 Akram Khan Company Chotto Desh Théâtre Am Stram Gram Genève Swiss
2017-01-20 00:00:00-2017-01-20 00:00:00 Ambra Senatore Pièces CCN Tours Tours France
2017-01-20 00:00:00-2017-01-20 00:00:00 Ambra Senatore Pièces Centre Chorégraphique National de Tours Tours France
2017-01-20 00:00:00-2017-01-21 00:00:002017-01-20 00:00:00 2017-01-21 00:00:00 Akram Khan Company Until the Lions Grand Théâtre de Luxembourg Luxembourg Luxembourg
2017-01-25 00:00:00-2017-01-25 00:00:00 Akram Khan Company Until the Lions Maison de la Culture d'Amiens Amiens France
2017-01-26 00:00:00-2017-01-28 00:00:002017-01-26 00:00:00 2017-01-28 00:00:00 Akram Khan Company Chotto Desh Espace 1789 Saint Ouen France
2017-01-31 00:00:00-2017-01-31 00:00:00 Akram Khan Company Chotto Desh Théâtre des Bergeries Noisy-le-Sec France
2017-02-02 00:00:00-2017-02-03 00:00:002017-02-02 00:00:00 2017-02-03 00:00:00 Akram Khan Company Chotto Desh Le Prisme Saint-Quentin-en-Yvelines France
2017-02-07 00:00:00-2017-02-07 00:00:00 Ambra Senatore Pièces Le Carré, Théâtre des Ursulines Château-Gontier France
2017-02-07 00:00:00-2017-02-07 00:00:00 Akram Khan Company Chotto Desh Dansnät Sverige Stockholm Suède
2017-02-07 00:00:00-2017-02-11 00:00:002017-02-07 00:00:00 2017-02-11 00:00:00 Akram Khan Company Until the Lions TEAT Champ Fleuri Sainte-Clotilde Ile de la Réunion
2017-02-09 00:00:00-2017-02-09 00:00:00 Ambra Senatore Passo Le Quatrain Haute-Goulaine France
2017-02-09 00:00:00-2017-02-09 00:00:00 Akram Khan Company Chotto Desh Dansnät Sverige Stockholm Suède
2017-02-11 00:00:00-2017-02-11 00:00:00 Ambra Senatore Passo Espace Culturel Paul Guimard Saint-Mars-La-Jaille France
2017-02-11 00:00:00-2017-02-11 00:00:00 Akram Khan Company Chotto Desh Dansnät Sverige Stockholm Suède
2017-02-14 00:00:00-2017-02-14 00:00:00 Akram Khan Company Chotto Desh Dansnät Sverige Stockholm Suède
2017-02-16 00:00:00-2017-02-16 00:00:00 Akram Khan Company Chotto Desh Dansnät Sverige Stockholm Suède
2017-02-16 00:00:00-2017-02-16 00:00:00 Akram Khan Company Until the Lions Centre national de danse contemporaine d'Angers Angers France
2017-02-16 00:00:00-2017-02-19 00:00:002017-02-16 00:00:00 2017-02-19 00:00:00 The Tiger Lillies The Tiger Lillies perform Hamlet Teatri Stabile Torino Turin Italie
2017-03-15 00:00:00-2017-03-19 00:00:002017-03-15 00:00:00 2017-03-19 00:00:00 Ambra Senatore Pièces Théâtre des Abbesses Paris France
2017-03-21 00:00:00-2017-03-22 00:00:002017-03-21 00:00:00 2017-03-22 00:00:00 Wim Vandekeybus In Spite of Wishing and Wanting La Comédie de Clermont-Ferrand scène naionale Clermont-Ferrand France
2017-03-30 00:00:00-2017-03-30 00:00:00 Wim Vandekeybus In Spite of Wishing and Wanting Posthof Linz Autriche
2017-04-14 00:00:00-2017-04-22 00:00:002017-04-14 00:00:00 2017-04-22 00:00:00 Wim Vandekeybus Mockumentary of a contemporary saviour KVS. Brussels Bruxelles Belgique
2017-04-25 00:00:00-2017-04-25 00:00:00 Ambra Senatore Passo L'Hectare Vendome France
2017-04-26 00:00:00-2017-04-29 00:00:002017-04-26 00:00:00 2017-04-29 00:00:00 Wim Vandekeybus Mockumentary of a contemporary saviour STUK Leuven Belgique
2017-04-26 00:00:00-2017-04-26 00:00:00 YAMA Belgrade Dance Festival Belgrade Serbie
2017-05-03 00:00:00-2017-05-10 00:00:002017-05-03 00:00:00 2017-05-10 00:00:00 Brett Bailey Sanctuary Onassis Cultural Centre Anthènes Grèce
2017-05-03 00:00:00-2017-05-03 00:00:00 Wim Vandekeybus Mockumentary of a contemporary saviour CCHA Hasselt Belgique
2017-05-04 00:00:00-2017-05-07 00:00:002017-05-04 00:00:00 2017-05-07 00:00:00 Dada Masilo Giselle Dansens Hus Oslo Norvège
2017-05-05 00:00:00-2017-05-05 00:00:00 Wim Vandekeybus Mockumentary of a contemporary saviour Cultuur Centrum Bruges Belgique
2017-05-14 00:00:00-2017-05-14 00:00:00 Wim Vandekeybus Mockumentary of a contemporary saviour Dance 2017 Munchen Munich Allemagne
2017-05-26 00:00:00-2017-05-29 00:00:002017-05-26 00:00:00 2017-05-29 00:00:00 Wim Vandekeybus Mockumentary of a contemporary saviour Divadlo Archa Prague République Tchèque
2017-06-01 00:00:00-2017-06-04 00:00:002017-06-01 00:00:00 2017-06-04 00:00:00 Wim Vandekeybus Mockumentary of a contemporary saviour 104 cent quatre Paris France
2017-06-05 00:00:00-2017-06-10 00:00:002017-06-05 00:00:00 2017-06-10 00:00:00 Brett Bailey Sanctuary Kampnagel Hambourg France
2017-06-05 00:00:00-2017-06-10 00:00:002017-06-05 00:00:00 2017-06-10 00:00:00 Brett Bailey Sanctuary Kampnagel Hambourg France
2017-06-06 00:00:00-2017-06-07 00:00:002017-06-06 00:00:00 2017-06-07 00:00:00 The Tiger Lillies Le Palais Hanté d'Edgar Allan Poe Den Nationale Scene, Bergen International Festival Bergen Norvège
2017-06-07 00:00:00-2017-06-07 00:00:00 William Kentridge Refuse the Hour Teatro Coliseo Buenos Aires Argentine
2017-06-16 00:00:00-2017-06-21 00:00:002017-06-16 00:00:00 2017-06-21 00:00:00 Brett Bailey Sanctuary Friche la Belle de Mai, Festival de Marseille Marseille France
2017-06-16 00:00:00-2017-06-21 00:00:002017-06-16 00:00:00 2017-06-21 00:00:00 Brett Bailey Sanctuary Friche la Belle de Mai, Festival de Marseille Marseille France
2017-06-19 00:00:00-2017-06-20 00:00:002017-06-19 00:00:00 2017-06-20 00:00:00 Dada Masilo Giselle Kupio Dance Festival Kupio Finland
2017-06-28 00:00:00-2017-06-30 00:00:002017-06-28 00:00:00 2017-06-30 00:00:00 Wim Vandekeybus In Spite of Wishing and Wanting La Villette Paris France
2017-08-11 00:00:00-2017-08-11 00:00:00 Dada Masilo Giselle Impulstanz, Volkstheater Vienne Autriche
2017-09-12 00:00:00-2017-09-12 00:00:00 Dada Masilo Giselle La Bâtie, Festival de Genève Genève Swiss
2017-09-29 00:00:00-2017-09-29 00:00:00 The Tiger Lillies Le Palais Hanté d'Edgar Allan Poe Maison de la Musique de Nanterre Nanterre France
2017-10-06 00:00:00-2017-10-07 00:00:002017-10-06 00:00:00 2017-10-07 00:00:00 Wim Vandekeybus In Spite of Wishing and Wanting Festival Internacional de Buenos Aires Buenos Aires Argentine
2017-10-13 00:00:00-2017-10-13 00:00:00 Wim Vandekeybus In Spite of Wishing and Wanting European Theatre Festival Eurothalia Timisoara Romanie
2017-10-18 00:00:00-2017-10-19 00:00:002017-10-18 00:00:00 2017-10-19 00:00:00 The Tiger Lillies Le Palais Hanté d'Edgar Allan Poe Théâtre Angoulême Scène Nationale Angoulême France
2017-10-19 00:00:00-2017-10-21 00:00:002017-10-19 00:00:00 2017-10-21 00:00:00 Wim Vandekeybus Mockumentary of a contemporary saviour deSingel Anvers Belgique
2017-10-19 00:00:00-2017-10-20 00:00:002017-10-19 00:00:00 2017-10-20 00:00:00 Wim Vandekeybus In Spite of Wishing and Wanting Schauspiel Cologne Allemagne
2017-10-24 00:00:00-2017-10-24 00:00:00 Wim Vandekeybus In Spite of Wishing and Wanting CC Diest Diest Belgique
2017-10-27 00:00:00-2017-10-27 00:00:00 Wim Vandekeybus In Spite of Wishing and Wanting Westrand, Cultuurcentrum Dilbeek vzw Dilbeek Belgique
2017-11-01 00:00:00-2017-11-04 00:00:002017-11-01 00:00:00 2017-11-04 00:00:00 William Kentridge A Guided Tour of the Exhibition: For Soprano with Handbag The Print Room Londres Royaume-Uni
2017-11-02 00:00:00-2017-11-05 00:00:002017-11-02 00:00:00 2017-11-05 00:00:00 Brett Bailey Sanctuary Stadsschouwburg Amsterdam Amsterdam France
2017-11-10 00:00:00-2017-11-10 00:00:00 The Tiger Lillies Le Palais Hanté d'Edgar Allan Poe Teatro Circo Murcia Murcia Espagne
2017-11-12 00:00:00-2017-11-12 00:00:00 Wim Vandekeybus In Spite of Wishing and Wanting Tanzstage Regensburg Allemagne
2017-11-12 00:00:00-2017-11-12 00:00:00 The Tiger Lillies Le Palais Hanté d'Edgar Allan Poe Teatro Alhambr Grenade Espagne
2017-11-14 00:00:00-2017-11-14 00:00:00 Wim Vandekeybus In Spite of Wishing and Wanting CCHA Hasselt Belgique
2017-11-15 00:00:00-2017-11-15 00:00:00 The Tiger Lillies Le Palais Hanté d'Edgar Allan Poe Teatro Central Seville Espagne
2017-11-17 00:00:00-2017-11-17 00:00:00 Wim Vandekeybus In Spite of Wishing and Wanting Château Rouge Annemasse France
2017-11-18 00:00:00-2017-11-18 00:00:00 The Tiger Lillies Le Palais Hanté d'Edgar Allan Poe Carré-Colonne Saint Médard en Jalles France